Home > Products > Valid Products > TAF

000
FTUS42 KMFL 272204 AAC
TAFMIA
TAF AMD
KMIA 272204Z 2722/2818 24018G28KT P6SM BKN040 BKN100
      TEMPO 2722/2723 29025G40KT 4SM +TSRA BKN020CB
     FM280000 27015G25KT 5SM SHRA SCT015 OVC040
     FM280400 31012G22KT P6SM BKN035
     FM281200 34015G25KT P6SM SCT250=



000
FTUS42 KMFL 272133 AAB
TAFAPF
TAF AMD
KAPF 272133Z 2722/2818 24015G25KT 4SM SHRA SCT010 OVC060
     FM280000 31015G25KT P6SM -RA SCT020 OVC050
     FM280400 34013G23KT P6SM BKN050
     FM281200 34013G23KT P6SM SCT035 SCT250=



000
FTUS42 KMFL 272133 AAB
TAFAPF
TAF AMD
KAPF 272133Z 2722/2818 24015G25KT 4SM SHRA SCT010 OVC060
     FM280000 31015G25KT P6SM -RA SCT020 OVC050
     FM280400 34013G23KT P6SM BKN050
     FM281200 34013G23KT P6SM SCT035 SCT250=



000
FTUS42 KMFL 272133 AAB
TAFAPF
TAF AMD
KAPF 272133Z 2722/2818 24015G25KT 4SM SHRA SCT010 OVC060
     FM280000 31015G25KT P6SM -RA SCT020 OVC050
     FM280400 34013G23KT P6SM BKN050
     FM281200 34013G23KT P6SM SCT035 SCT250=



000
FTUS42 KMFL 272133 AAB
TAFAPF
TAF AMD
KAPF 272133Z 2722/2818 24015G25KT 4SM SHRA SCT010 OVC060
     FM280000 31015G25KT P6SM -RA SCT020 OVC050
     FM280400 34013G23KT P6SM BKN050
     FM281200 34013G23KT P6SM SCT035 SCT250=



000
FTUS42 KMFL 272123 AAB
TAFMIA
TAF AMD
KMIA 272123Z 2721/2818 23018G28KT P6SM BKN040 BKN100
      TEMPO 2723/2724 25025G35KT 4SM +TSRA BKN020CB
     FM280000 27015G25KT 5SM SHRA SCT015 OVC040
     FM280400 31012G22KT P6SM BKN035
     FM281200 34015G25KT P6SM SCT250=



000
FTUS42 KMFL 272123 AAB
TAFMIA
TAF AMD
KMIA 272123Z 2721/2818 23018G28KT P6SM BKN040 BKN100
      TEMPO 2723/2724 25025G35KT 4SM +TSRA BKN020CB
     FM280000 27015G25KT 5SM SHRA SCT015 OVC040
     FM280400 31012G22KT P6SM BKN035
     FM281200 34015G25KT P6SM SCT250=



000
FTUS42 KMFL 272123 AAB
TAFMIA
TAF AMD
KMIA 272123Z 2721/2818 23018G28KT P6SM BKN040 BKN100
      TEMPO 2723/2724 25025G35KT 4SM +TSRA BKN020CB
     FM280000 27015G25KT 5SM SHRA SCT015 OVC040
     FM280400 31012G22KT P6SM BKN035
     FM281200 34015G25KT P6SM SCT250=



000
FTUS42 KMFL 272123 AAB
TAFMIA
TAF AMD
KMIA 272123Z 2721/2818 23018G28KT P6SM BKN040 BKN100
      TEMPO 2723/2724 25025G35KT 4SM +TSRA BKN020CB
     FM280000 27015G25KT 5SM SHRA SCT015 OVC040
     FM280400 31012G22KT P6SM BKN035
     FM281200 34015G25KT P6SM SCT250=



000
FTUS42 KMFL 272118 AAA
TAFFLL
TAF AMD
KFLL 272118Z 2721/2818 24020G30KT P6SM VCTS SCT035CB BKN060
     FM272200 25020G30KT 5SM SHRA BKN025 BKN040
      TEMPO 2722/2724 25025G35KT 3SM +TSRA BKN020CB
     FM280000 30010KT P6SM BKN060=



000
FTUS42 KMFL 272118 AAA
TAFFLL
TAF AMD
KFLL 272118Z 2721/2818 24020G30KT P6SM VCTS SCT035CB BKN060
     FM272200 25020G30KT 5SM SHRA BKN025 BKN040
      TEMPO 2722/2724 25025G35KT 3SM +TSRA BKN020CB
     FM280000 30010KT P6SM BKN060=



000
FTUS42 KMFL 272118 AAA
TAFFLL
TAF AMD
KFLL 272118Z 2721/2818 24020G30KT P6SM VCTS SCT035CB BKN060
     FM272200 25020G30KT 5SM SHRA BKN025 BKN040
      TEMPO 2722/2724 25025G35KT 3SM +TSRA BKN020CB
     FM280000 30010KT P6SM BKN060=



000
FTUS42 KMFL 272118 AAA
TAFFLL
TAF AMD
KFLL 272118Z 2721/2818 24020G30KT P6SM VCTS SCT035CB BKN060
     FM272200 25020G30KT 5SM SHRA BKN025 BKN040
      TEMPO 2722/2724 25025G35KT 3SM +TSRA BKN020CB
     FM280000 30010KT P6SM BKN060=



000
FTUS42 KMFL 272112 AAA
TAFMIA
TAF AMD
KMIA 272112Z 2721/2818 23018G28KT 4SM SHRA BKN025 OVC040
      TEMPO 2721/2722 25025G45KT 2SM +TSRA BKN015CB
     FM280000 29010KT P6SM BKN050=



000
FTUS42 KMFL 272112 AAA
TAFMIA
TAF AMD
KMIA 272112Z 2721/2818 23018G28KT 4SM SHRA BKN025 OVC040
      TEMPO 2721/2722 25025G45KT 2SM +TSRA BKN015CB
     FM280000 29010KT P6SM BKN050=



000
FTUS42 KMFL 271749 AAA
TAFAPF
TAF AMD
KAPF 271749Z 2718/2818 23013KT P6SM VCSH SCT015 BKN030
      TEMPO 2718/2719 BKN015
     FM272000 24015G25KT P6SM VCTS OVC035CB
      TEMPO 2720/2722 VRB15G30KT 5SM TSRA OVC025CB
     FM280000 27012G22KT P6SM VCSH OVC050
     FM280200 31010G20KT P6SM BKN050=



000
FTUS42 KMFL 271749 AAA
TAFAPF
TAF AMD
KAPF 271749Z 2718/2818 23013KT P6SM VCSH SCT015 BKN030
      TEMPO 2718/2719 BKN015
     FM272000 24015G25KT P6SM VCTS OVC035CB
      TEMPO 2720/2722 VRB15G30KT 5SM TSRA OVC025CB
     FM280000 27012G22KT P6SM VCSH OVC050
     FM280200 31010G20KT P6SM BKN050=



000
FTUS42 KMFL 271749 AAA
TAFAPF
TAF AMD
KAPF 271749Z 2718/2818 23013KT P6SM VCSH SCT015 BKN030
      TEMPO 2718/2719 BKN015
     FM272000 24015G25KT P6SM VCTS OVC035CB
      TEMPO 2720/2722 VRB15G30KT 5SM TSRA OVC025CB
     FM280000 27012G22KT P6SM VCSH OVC050
     FM280200 31010G20KT P6SM BKN050=



000
FTUS42 KMFL 271742
TAFPBI
TAF
KPBI 271742Z 2718/2818 23018G25KT P6SM VCTS SCT030CB BKN040 BKN120
      TEMPO 2719/2723 VRB15G30KT 4SM TSRA SCT015CB BKN030
     FM280000 28012G24KT P6SM BKN050
     FM280600 30014G22KT P6SM SCT250=



000
FTUS42 KMFL 271742
TAFFLL
TAF
KFLL 271742Z 2718/2818 21011G21KT P6SM VCTS SCT035CB BKN070
     FM280000 30010KT P6SM BKN060=



000
FTUS42 KMFL 271742
TAFMIA
TAF
KMIA 271742Z 2718/2818 23015G21KT P6SM VCTS SCT040CB BKN300
     FM280000 29010KT P6SM BKN050=



000
FTUS42 KMFL 271742
TAFAPF
TAF
KAPF 271742Z 2718/2818 22012G23KT P6SM VCSH SCT015 BKN025
     FM272000 24015G25KT P6SM VCTS OVC035CB
      TEMPO 2720/2722 VRB15G30KT 5SM TSRA OVC025CB
     FM280000 27012G22KT P6SM VCSH OVC050
     FM280200 31010G20KT P6SM BKN050=



000
FTUS42 KMFL 271742
TAFAPF
TAF
KAPF 271742Z 2718/2818 22012G23KT P6SM VCSH SCT015 BKN025
     FM272000 24015G25KT P6SM VCTS OVC035CB
      TEMPO 2720/2722 VRB15G30KT 5SM TSRA OVC025CB
     FM280000 27012G22KT P6SM VCSH OVC050
     FM280200 31010G20KT P6SM BKN050=



000
FTUS42 KMFL 271742
TAFMIA
TAF
KMIA 271742Z 2718/2818 23015G21KT P6SM VCTS SCT040CB BKN300
     FM280000 29010KT P6SM BKN050=



000
FTUS42 KMFL 271742
TAFFLL
TAF
KFLL 271742Z 2718/2818 21011G21KT P6SM VCTS SCT035CB BKN070
     FM280000 30010KT P6SM BKN060=



000
FTUS42 KMFL 271742
TAFPBI
TAF
KPBI 271742Z 2718/2818 23018G25KT P6SM VCTS SCT030CB BKN040 BKN120
      TEMPO 2719/2723 VRB15G30KT 4SM TSRA SCT015CB BKN030
     FM280000 28012G24KT P6SM BKN050
     FM280600 30014G22KT P6SM SCT250=



000
FTUS42 KMFL 271742
TAFFLL
TAF
KFLL 271742Z 2718/2818 21011G21KT P6SM VCTS SCT035CB BKN070
     FM280000 30010KT P6SM BKN060=



000
FTUS42 KMFL 271742
TAFAPF
TAF
KAPF 271742Z 2718/2818 22012G23KT P6SM VCSH SCT015 BKN025
     FM272000 24015G25KT P6SM VCTS OVC035CB
      TEMPO 2720/2722 VRB15G30KT 5SM TSRA OVC025CB
     FM280000 27012G22KT P6SM VCSH OVC050
     FM280200 31010G20KT P6SM BKN050=



000
FTUS42 KMFL 271742
TAFFLL
TAF
KFLL 271742Z 2718/2818 21011G21KT P6SM VCTS SCT035CB BKN070
     FM280000 30010KT P6SM BKN060=



000
FTUS42 KMFL 271742
TAFMIA
TAF
KMIA 271742Z 2718/2818 23015G21KT P6SM VCTS SCT040CB BKN300
     FM280000 29010KT P6SM BKN050=



000
FTUS42 KMFL 271742
TAFPBI
TAF
KPBI 271742Z 2718/2818 23018G25KT P6SM VCTS SCT030CB BKN040 BKN120
      TEMPO 2719/2723 VRB15G30KT 4SM TSRA SCT015CB BKN030
     FM280000 28012G24KT P6SM BKN050
     FM280600 30014G22KT P6SM SCT250=



000
FTUS42 KMFL 271742
TAFMIA
TAF
KMIA 271742Z 2718/2818 23015G21KT P6SM VCTS SCT040CB BKN300
     FM280000 29010KT P6SM BKN050=



000
FTUS42 KMFL 271742
TAFAPF
TAF
KAPF 271742Z 2718/2818 22012G23KT P6SM VCSH SCT015 BKN025
     FM272000 24015G25KT P6SM VCTS OVC035CB
      TEMPO 2720/2722 VRB15G30KT 5SM TSRA OVC025CB
     FM280000 27012G22KT P6SM VCSH OVC050
     FM280200 31010G20KT P6SM BKN050=



000
FTUS42 KMFL 271742
TAFPBI
TAF
KPBI 271742Z 2718/2818 23018G25KT P6SM VCTS SCT030CB BKN040 BKN120
      TEMPO 2719/2723 VRB15G30KT 4SM TSRA SCT015CB BKN030
     FM280000 28012G24KT P6SM BKN050
     FM280600 30014G22KT P6SM SCT250=



000
FTUS42 KMFL 271605 AAB
TAFAPF
TAF AMD
KAPF 271605Z 2716/2812 22012KT P6SM VCSH BKN014
     FM271700 22020G30KT P6SM VCTS SCT014 BKN060CB
     FM280000 30012KT P6SM BKN050=



000
FTUS42 KMFL 271605 AAB
TAFAPF
TAF AMD
KAPF 271605Z 2716/2812 22012KT P6SM VCSH BKN014
     FM271700 22020G30KT P6SM VCTS SCT014 BKN060CB
     FM280000 30012KT P6SM BKN050=



000
FTUS42 KMFL 271520 AAC
TAFMIA
TAF AMD
KMIA 271520Z 2715/2812 20009G18KT P6SM VCSH SCT023 BKN035
      TEMPO 2715/2716 5SM SHRA BKN030
     FM271700 24016G26KT P6SM VCTS SCT020 BKN060CB
     FM280000 29010KT P6SM BKN050=



000
FTUS42 KMFL 271520 AAC
TAFMIA
TAF AMD
KMIA 271520Z 2715/2812 20009G18KT P6SM VCSH SCT023 BKN035
      TEMPO 2715/2716 5SM SHRA BKN030
     FM271700 24016G26KT P6SM VCTS SCT020 BKN060CB
     FM280000 29010KT P6SM BKN050=



000
FTUS42 KMFL 271519 AAB
TAFFLL
TAF AMD
KFLL 271519Z 2715/2812 23012G20KT P6SM VCSH SCT028 BKN030 BKN250
     FM271700 25018G28KT P6SM VCTS SCT020 BKN035CB
     FM280000 30010KT P6SM BKN050=



000
FTUS42 KMFL 271519 AAB
TAFPBI
TAF AMD
KPBI 271519Z 2715/2812 18015G21KT P6SM VCSH BKN070 BKN100
     FM271600 25020G30KT P6SM VCTS SCT020 BKN035CB
     FM280000 28012KT P6SM BKN050=



000
FTUS42 KMFL 271519 AAB
TAFFLL
TAF AMD
KFLL 271519Z 2715/2812 23012G20KT P6SM VCSH SCT028 BKN030 BKN250
     FM271700 25018G28KT P6SM VCTS SCT020 BKN035CB
     FM280000 30010KT P6SM BKN050=



000
FTUS42 KMFL 271518 AAA
TAFFLL
TAF AMD
KFLL 271518Z 2715/2812 23012G20KT P6SM SCT028 BKN030 BKN250
     FM271700 25018G28KT P6SM VCTS SCT020 BKN035CB
     FM280000 30010KT P6SM BKN050=



000
FTUS42 KMFL 271516 AAA
TAFAPF
TAF AMD
KAPF 271516Z 2715/2812 21011G21KT P6SM VCSH BKN080
     FM271700 22020G30KT P6SM VCTS BKN060CB
     FM280000 30012KT P6SM BKN050=



000
FTUS42 KMFL 271516 AAA
TAFAPF
TAF AMD
KAPF 271516Z 2715/2812 21011G21KT P6SM VCSH BKN080
     FM271700 22020G30KT P6SM VCTS BKN060CB
     FM280000 30012KT P6SM BKN050=



000
FTUS42 KMFL 271516 AAA
TAFAPF
TAF AMD
KAPF 271516Z 2715/2812 21011G21KT P6SM VCSH BKN080
     FM271700 22020G30KT P6SM VCTS BKN060CB
     FM280000 30012KT P6SM BKN050=



000
FTUS42 KMFL 271516 AAA
TAFAPF
TAF AMD
KAPF 271516Z 2715/2812 21011G21KT P6SM VCSH BKN080
     FM271700 22020G30KT P6SM VCTS BKN060CB
     FM280000 30012KT P6SM BKN050=



000
FTUS42 KMFL 271514 AAB
TAFMIA
TAF AMD
KMIA 271514Z 2715/2812 20009KT P6SM VCSH SCT023 BKN035
      TEMPO 2715/2716 5SM SHRA BKN030
     FM271700 24016G26KT P6SM VCTS SCT020 BKN060CB
     FM280000 29010KT P6SM BKN050=



000
FTUS42 KMFL 271514 AAB
TAFMIA
TAF AMD
KMIA 271514Z 2715/2812 20009KT P6SM VCSH SCT023 BKN035
      TEMPO 2715/2716 5SM SHRA BKN030
     FM271700 24016G26KT P6SM VCTS SCT020 BKN060CB
     FM280000 29010KT P6SM BKN050=



000
FTUS42 KMFL 271514 AAB
TAFMIA
TAF AMD
KMIA 271514Z 2715/2812 20009KT P6SM VCSH SCT023 BKN035
      TEMPO 2715/2716 5SM SHRA BKN030
     FM271700 24016G26KT P6SM VCTS SCT020 BKN060CB
     FM280000 29010KT P6SM BKN050=



000
FTUS42 KMFL 271514 AAB
TAFMIA
TAF AMD
KMIA 271514Z 2715/2812 20009KT P6SM VCSH SCT023 BKN035
      TEMPO 2715/2716 5SM SHRA BKN030
     FM271700 24016G26KT P6SM VCTS SCT020 BKN060CB
     FM280000 29010KT P6SM BKN050=



000
FTUS42 KMFL 271407 AAA
TAFPBI
TAF AMD
KPBI 271407Z 2714/2812 19009KT P6SM BKN090 BKN140
     FM271600 25020G30KT P6SM VCTS SCT020 BKN035CB
     FM280000 28012KT P6SM BKN050=



000
FTUS42 KMFL 271407 AAA
TAFPBI
TAF AMD
KPBI 271407Z 2714/2812 19009KT P6SM BKN090 BKN140
     FM271600 25020G30KT P6SM VCTS SCT020 BKN035CB
     FM280000 28012KT P6SM BKN050=



000
FTUS42 KMFL 271405 AAA
TAFMIA
TAF AMD
KMIA 271405Z 2714/2812 21011KT P6SM BKN030
      TEMPO 2714/2715 BKN015
     FM271500 22012KT P6SM BKN050
     FM271700 24016G26KT P6SM VCTS SCT020 BKN060CB
     FM280000 29010KT P6SM BKN050=



000
FTUS42 KMFL 271405 AAA
TAFMIA
TAF AMD
KMIA 271405Z 2714/2812 21011KT P6SM BKN030
      TEMPO 2714/2715 BKN015
     FM271500 22012KT P6SM BKN050
     FM271700 24016G26KT P6SM VCTS SCT020 BKN060CB
     FM280000 29010KT P6SM BKN050=



000
FTUS42 KMFL 271135
TAFFLL
TAF
KFLL 271135Z 2712/2812 22006KT P6SM SKC
     FM271300 22013G18KT P6SM SCT025 SCT050
     FM271700 25018G28KT P6SM VCTS SCT020 BKN035CB
     FM280000 30010KT P6SM BKN050=



000
FTUS42 KMFL 271135
TAFPBI
TAF
KPBI 271135Z 2712/2812 22007KT P6SM VCTS BKN050CB
      TEMPO 2712/2714 5SM SHRA BKN040
     FM271400 23013G18KT P6SM SCT025 SCT050
     FM271700 25020G30KT P6SM VCTS SCT020 BKN035CB
     FM280000 28012KT P6SM BKN050=



000
FTUS42 KMFL 271135
TAFPBI
TAF
KPBI 271135Z 2712/2812 22007KT P6SM VCTS BKN050CB
      TEMPO 2712/2714 5SM SHRA BKN040
     FM271400 23013G18KT P6SM SCT025 SCT050
     FM271700 25020G30KT P6SM VCTS SCT020 BKN035CB
     FM280000 28012KT P6SM BKN050=



000
FTUS42 KMFL 271135
TAFAPF
TAF
KAPF 271135Z 2712/2812 25006KT 4SM BR SCT009
     FM271230 23013G18KT P6SM SCT025 SCT050
     FM271500 26020G30KT P6SM VCTS SCT020 BKN050CB
     FM280000 30012KT P6SM BKN050=



000
FTUS42 KMFL 271135
TAFFLL
TAF
KFLL 271135Z 2712/2812 22006KT P6SM SKC
     FM271300 22013G18KT P6SM SCT025 SCT050
     FM271700 25018G28KT P6SM VCTS SCT020 BKN035CB
     FM280000 30010KT P6SM BKN050=



000
FTUS42 KMFL 271135
TAFMIA
TAF
KMIA 271135Z 2712/2812 VRB04KT P6SM SCT035
     FM271300 21013G18KT P6SM SCT050
     FM271700 24016G26KT P6SM VCTS SCT020 BKN060CB
     FM280000 29010KT P6SM BKN050=



000
FTUS42 KMFL 271135
TAFFLL
TAF
KFLL 271135Z 2712/2812 22006KT P6SM SKC
     FM271300 22013G18KT P6SM SCT025 SCT050
     FM271700 25018G28KT P6SM VCTS SCT020 BKN035CB
     FM280000 30010KT P6SM BKN050=



000
FTUS42 KMFL 271135
TAFAPF
TAF
KAPF 271135Z 2712/2812 25006KT 4SM BR SCT009
     FM271230 23013G18KT P6SM SCT025 SCT050
     FM271500 26020G30KT P6SM VCTS SCT020 BKN050CB
     FM280000 30012KT P6SM BKN050=



000
FTUS42 KMFL 271135
TAFMIA
TAF
KMIA 271135Z 2712/2812 VRB04KT P6SM SCT035
     FM271300 21013G18KT P6SM SCT050
     FM271700 24016G26KT P6SM VCTS SCT020 BKN060CB
     FM280000 29010KT P6SM BKN050=



000
FTUS42 KMFL 271135
TAFAPF
TAF
KAPF 271135Z 2712/2812 25006KT 4SM BR SCT009
     FM271230 23013G18KT P6SM SCT025 SCT050
     FM271500 26020G30KT P6SM VCTS SCT020 BKN050CB
     FM280000 30012KT P6SM BKN050=



000
FTUS42 KMFL 271135
TAFPBI
TAF
KPBI 271135Z 2712/2812 22007KT P6SM VCTS BKN050CB
      TEMPO 2712/2714 5SM SHRA BKN040
     FM271400 23013G18KT P6SM SCT025 SCT050
     FM271700 25020G30KT P6SM VCTS SCT020 BKN035CB
     FM280000 28012KT P6SM BKN050=



000
FTUS42 KMFL 271135
TAFPBI
TAF
KPBI 271135Z 2712/2812 22007KT P6SM VCTS BKN050CB
      TEMPO 2712/2714 5SM SHRA BKN040
     FM271400 23013G18KT P6SM SCT025 SCT050
     FM271700 25020G30KT P6SM VCTS SCT020 BKN035CB
     FM280000 28012KT P6SM BKN050=



000
FTUS42 KMFL 271135
TAFAPF
TAF
KAPF 271135Z 2712/2812 25006KT 4SM BR SCT009
     FM271230 23013G18KT P6SM SCT025 SCT050
     FM271500 26020G30KT P6SM VCTS SCT020 BKN050CB
     FM280000 30012KT P6SM BKN050=



000
FTUS42 KMFL 271135
TAFMIA
TAF
KMIA 271135Z 2712/2812 VRB04KT P6SM SCT035
     FM271300 21013G18KT P6SM SCT050
     FM271700 24016G26KT P6SM VCTS SCT020 BKN060CB
     FM280000 29010KT P6SM BKN050=



000
FTUS42 KMFL 271135
TAFFLL
TAF
KFLL 271135Z 2712/2812 22006KT P6SM SKC
     FM271300 22013G18KT P6SM SCT025 SCT050
     FM271700 25018G28KT P6SM VCTS SCT020 BKN035CB
     FM280000 30010KT P6SM BKN050=



000
FTUS42 KMFL 271135
TAFMIA
TAF
KMIA 271135Z 2712/2812 VRB04KT P6SM SCT035
     FM271300 21013G18KT P6SM SCT050
     FM271700 24016G26KT P6SM VCTS SCT020 BKN060CB
     FM280000 29010KT P6SM BKN050=



000
FTUS42 KMFL 271116 AAB
TAFPBI
TAF AMD
KPBI 271116Z 2711/2806 22007KT P6SM VCTS BKN050CB
      TEMPO 2711/2712 5SM SHRA OVC030
     FM271400 23013G18KT P6SM SCT025 SCT050
     FM271700 25020G30KT P6SM VCTS SCT020 BKN035CB
     FM280000 28012KT P6SM BKN050=



000
FTUS42 KMFL 271116 AAB
TAFPBI
TAF AMD
KPBI 271116Z 2711/2806 22007KT P6SM VCTS BKN050CB
      TEMPO 2711/2712 5SM SHRA OVC030
     FM271400 23013G18KT P6SM SCT025 SCT050
     FM271700 25020G30KT P6SM VCTS SCT020 BKN035CB
     FM280000 28012KT P6SM BKN050=



000
FTUS42 KMFL 271116 AAB
TAFPBI
TAF AMD
KPBI 271116Z 2711/2806 22007KT P6SM VCTS BKN050CB
      TEMPO 2711/2712 5SM SHRA OVC030
     FM271400 23013G18KT P6SM SCT025 SCT050
     FM271700 25020G30KT P6SM VCTS SCT020 BKN035CB
     FM280000 28012KT P6SM BKN050=



000
FTUS42 KMFL 271116 AAB
TAFPBI
TAF AMD
KPBI 271116Z 2711/2806 22007KT P6SM VCTS BKN050CB
      TEMPO 2711/2712 5SM SHRA OVC030
     FM271400 23013G18KT P6SM SCT025 SCT050
     FM271700 25020G30KT P6SM VCTS SCT020 BKN035CB
     FM280000 28012KT P6SM BKN050=



000
FTUS42 KMFL 270918 AAA
TAFMIA
TAF AMD
KMIA 270918Z 2709/2806 19006KT P6SM SCT100
     FM271300 21013G18KT P6SM SCT025 SCT050
     FM271700 24016G26KT P6SM VCTS SCT020 BKN035CB
     FM280000 29010KT P6SM BKN050=



000
FTUS42 KMFL 270918 AAB
TAFAPF
TAF AMD
KAPF 270918Z 2709/2806 21006KT P6SM FEW008 BKN040
      TEMPO 2709/2712 4SM BR OVC007
     FM271300 23013G18KT P6SM SCT025 SCT050
     FM271700 26020G30KT P6SM VCTS SCT020 BKN035CB
     FM280000 30012KT P6SM BKN050=



000
FTUS42 KMFL 270918 AAA
TAFPBI
TAF AMD
KPBI 270918Z 2709/2806 20007KT P6SM FEW200
     FM271300 23013G18KT P6SM SCT025 SCT050
     FM271700 25020G30KT P6SM VCTS SCT020 BKN035CB
     FM280000 28012KT P6SM BKN050=



000
FTUS42 KMFL 270918 AAA
TAFPBI
TAF AMD
KPBI 270918Z 2709/2806 20007KT P6SM FEW200
     FM271300 23013G18KT P6SM SCT025 SCT050
     FM271700 25020G30KT P6SM VCTS SCT020 BKN035CB
     FM280000 28012KT P6SM BKN050=



000
FTUS42 KMFL 270918 AAB
TAFAPF
TAF AMD
KAPF 270918Z 2709/2806 21006KT P6SM FEW008 BKN040
      TEMPO 2709/2712 4SM BR OVC007
     FM271300 23013G18KT P6SM SCT025 SCT050
     FM271700 26020G30KT P6SM VCTS SCT020 BKN035CB
     FM280000 30012KT P6SM BKN050=



000
FTUS42 KMFL 270918 AAA
TAFMIA
TAF AMD
KMIA 270918Z 2709/2806 19006KT P6SM SCT100
     FM271300 21013G18KT P6SM SCT025 SCT050
     FM271700 24016G26KT P6SM VCTS SCT020 BKN035CB
     FM280000 29010KT P6SM BKN050=



000
FTUS42 KMFL 270918 AAA
TAFFLL
TAF AMD
KFLL 270918Z 2709/2806 20006KT P6SM FEW120
     FM271300 22013G18KT P6SM SCT025 SCT050
     FM271700 25018G28KT P6SM VCTS SCT020 BKN035CB
     FM280000 30010KT P6SM BKN050=



000
FTUS42 KMFL 270918 AAA
TAFFLL
TAF AMD
KFLL 270918Z 2709/2806 20006KT P6SM FEW120
     FM271300 22013G18KT P6SM SCT025 SCT050
     FM271700 25018G28KT P6SM VCTS SCT020 BKN035CB
     FM280000 30010KT P6SM BKN050=



000
FTUS42 KMFL 270808 AAA
TAFAPF
TAF AMD
KAPF 270808Z 2708/2806 21006KT P6SM SCT040
      TEMPO 2708/2712 4SM BR OVC006
     FM271300 23013G18KT P6SM SCT025 SCT050
     FM271700 26020G30KT P6SM VCTS SCT020 BKN035CB
     FM280000 30012KT P6SM BKN050=



000
FTUS42 KMFL 270808 AAA
TAFAPF
TAF AMD
KAPF 270808Z 2708/2806 21006KT P6SM SCT040
      TEMPO 2708/2712 4SM BR OVC006
     FM271300 23013G18KT P6SM SCT025 SCT050
     FM271700 26020G30KT P6SM VCTS SCT020 BKN035CB
     FM280000 30012KT P6SM BKN050=



000
FTUS42 KMFL 270541
TAFMIA
TAF
KMIA 270541Z 2706/2806 19006KT P6SM SCT090
     FM271300 21013G18KT P6SM SCT025 SCT050
     FM271700 24016G26KT P6SM VCTS SCT020 BKN035CB
     FM280000 29010KT P6SM BKN050=



000
FTUS42 KMFL 270541
TAFAPF
TAF
KAPF 270541Z 2706/2806 20004KT P6SM FEW070
     FM271300 23013G18KT P6SM SCT025 SCT050
     FM271700 26020G30KT P6SM VCTS SCT020 BKN035CB
     FM280000 30012KT P6SM BKN050=



000
FTUS42 KMFL 270541
TAFFLL
TAF
KFLL 270541Z 2706/2806 19008KT P6SM FEW100
     FM271300 22013G18KT P6SM SCT025 SCT050
     FM271700 25018G28KT P6SM VCTS SCT020 BKN035CB
     FM280000 30010KT P6SM BKN050=



000
FTUS42 KMFL 270541
TAFPBI
TAF
KPBI 270541Z 2706/2806 20006KT P6SM FEW070 SCT200
     FM271300 23013G18KT P6SM SCT025 SCT050
     FM271700 25020G30KT P6SM VCTS SCT020 BKN035CB
     FM280000 28012KT P6SM BKN050=



000
FTUS42 KMFL 270541
TAFAPF
TAF
KAPF 270541Z 2706/2806 20004KT P6SM FEW070
     FM271300 23013G18KT P6SM SCT025 SCT050
     FM271700 26020G30KT P6SM VCTS SCT020 BKN035CB
     FM280000 30012KT P6SM BKN050=



000
FTUS42 KMFL 270541
TAFAPF
TAF
KAPF 270541Z 2706/2806 20004KT P6SM FEW070
     FM271300 23013G18KT P6SM SCT025 SCT050
     FM271700 26020G30KT P6SM VCTS SCT020 BKN035CB
     FM280000 30012KT P6SM BKN050=



000
FTUS42 KMFL 270541
TAFPBI
TAF
KPBI 270541Z 2706/2806 20006KT P6SM FEW070 SCT200
     FM271300 23013G18KT P6SM SCT025 SCT050
     FM271700 25020G30KT P6SM VCTS SCT020 BKN035CB
     FM280000 28012KT P6SM BKN050=



000
FTUS42 KMFL 270541
TAFMIA
TAF
KMIA 270541Z 2706/2806 19006KT P6SM SCT090
     FM271300 21013G18KT P6SM SCT025 SCT050
     FM271700 24016G26KT P6SM VCTS SCT020 BKN035CB
     FM280000 29010KT P6SM BKN050=



000
FTUS42 KMFL 270541
TAFMIA
TAF
KMIA 270541Z 2706/2806 19006KT P6SM SCT090
     FM271300 21013G18KT P6SM SCT025 SCT050
     FM271700 24016G26KT P6SM VCTS SCT020 BKN035CB
     FM280000 29010KT P6SM BKN050=



000
FTUS42 KMFL 270541
TAFFLL
TAF
KFLL 270541Z 2706/2806 19008KT P6SM FEW100
     FM271300 22013G18KT P6SM SCT025 SCT050
     FM271700 25018G28KT P6SM VCTS SCT020 BKN035CB
     FM280000 30010KT P6SM BKN050=



000
FTUS42 KMFL 270541
TAFFLL
TAF
KFLL 270541Z 2706/2806 19008KT P6SM FEW100
     FM271300 22013G18KT P6SM SCT025 SCT050
     FM271700 25018G28KT P6SM VCTS SCT020 BKN035CB
     FM280000 30010KT P6SM BKN050=



000
FTUS42 KMFL 270541
TAFPBI
TAF
KPBI 270541Z 2706/2806 20006KT P6SM FEW070 SCT200
     FM271300 23013G18KT P6SM SCT025 SCT050
     FM271700 25020G30KT P6SM VCTS SCT020 BKN035CB
     FM280000 28012KT P6SM BKN050=



000
FTUS42 KMFL 270541
TAFAPF
TAF
KAPF 270541Z 2706/2806 20004KT P6SM FEW070
     FM271300 23013G18KT P6SM SCT025 SCT050
     FM271700 26020G30KT P6SM VCTS SCT020 BKN035CB
     FM280000 30012KT P6SM BKN050=



000
FTUS42 KMFL 270541
TAFMIA
TAF
KMIA 270541Z 2706/2806 19006KT P6SM SCT090
     FM271300 21013G18KT P6SM SCT025 SCT050
     FM271700 24016G26KT P6SM VCTS SCT020 BKN035CB
     FM280000 29010KT P6SM BKN050=



000
FTUS42 KMFL 270541
TAFPBI
TAF
KPBI 270541Z 2706/2806 20006KT P6SM FEW070 SCT200
     FM271300 23013G18KT P6SM SCT025 SCT050
     FM271700 25020G30KT P6SM VCTS SCT020 BKN035CB
     FM280000 28012KT P6SM BKN050=



000
FTUS42 KMFL 270541
TAFFLL
TAF
KFLL 270541Z 2706/2806 19008KT P6SM FEW100
     FM271300 22013G18KT P6SM SCT025 SCT050
     FM271700 25018G28KT P6SM VCTS SCT020 BKN035CB
     FM280000 30010KT P6SM BKN050=



000
FTUS42 KMFL 270315 AAA
TAFFLL
TAF AMD
KFLL 270315Z 2703/2724 19008KT P6SM SCT120
     FM271300 22013G18KT P6SM VCSH SCT025 SCT050
     FM271700 25019G28KT P6SM VCTS SCT020 BKN035CB=



000
FTUS42 KMFL 270315 AAA
TAFMIA
TAF AMD
KMIA 270315Z 2703/2724 19007KT P6SM SCT070
     FM271300 21013G18KT P6SM VCSH SCT025 SCT050
     FM271700 24019G28KT P6SM VCTS SCT020 BKN035CB=



000
FTUS42 KMFL 270315 AAA
TAFAPF
TAF AMD
KAPF 270315Z 2703/2724 20004KT P6SM FEW025
     FM271300 23013G18KT P6SM VCSH SCT025 SCT050
     FM271700 26020G30KT P6SM VCTS SCT020 BKN035CB=



000
FTUS42 KMFL 270315 AAA
TAFPBI
TAF AMD
KPBI 270315Z 2703/2724 20006KT P6SM FEW025 SCT120
     FM271300 23013G18KT P6SM VCSH SCT025 SCT050
     FM271700 25020G30KT P6SM VCTS SCT020 BKN035CB=



000
FTUS42 KMFL 270315 AAA
TAFPBI
TAF AMD
KPBI 270315Z 2703/2724 20006KT P6SM FEW025 SCT120
     FM271300 23013G18KT P6SM VCSH SCT025 SCT050
     FM271700 25020G30KT P6SM VCTS SCT020 BKN035CB=



000
FTUS42 KMFL 270315 AAA
TAFAPF
TAF AMD
KAPF 270315Z 2703/2724 20004KT P6SM FEW025
     FM271300 23013G18KT P6SM VCSH SCT025 SCT050
     FM271700 26020G30KT P6SM VCTS SCT020 BKN035CB=



000
FTUS42 KMFL 270315 AAA
TAFMIA
TAF AMD
KMIA 270315Z 2703/2724 19007KT P6SM SCT070
     FM271300 21013G18KT P6SM VCSH SCT025 SCT050
     FM271700 24019G28KT P6SM VCTS SCT020 BKN035CB=



000
FTUS42 KMFL 270315 AAA
TAFAPF
TAF AMD
KAPF 270315Z 2703/2724 20004KT P6SM FEW025
     FM271300 23013G18KT P6SM VCSH SCT025 SCT050
     FM271700 26020G30KT P6SM VCTS SCT020 BKN035CB=



000
FTUS42 KMFL 270315 AAA
TAFMIA
TAF AMD
KMIA 270315Z 2703/2724 19007KT P6SM SCT070
     FM271300 21013G18KT P6SM VCSH SCT025 SCT050
     FM271700 24019G28KT P6SM VCTS SCT020 BKN035CB=



000
FTUS42 KMFL 270315 AAA
TAFFLL
TAF AMD
KFLL 270315Z 2703/2724 19008KT P6SM SCT120
     FM271300 22013G18KT P6SM VCSH SCT025 SCT050
     FM271700 25019G28KT P6SM VCTS SCT020 BKN035CB=



000
FTUS42 KMFL 270315 AAA
TAFFLL
TAF AMD
KFLL 270315Z 2703/2724 19008KT P6SM SCT120
     FM271300 22013G18KT P6SM VCSH SCT025 SCT050
     FM271700 25019G28KT P6SM VCTS SCT020 BKN035CB=



000
FTUS42 KMFL 270315 AAA
TAFFLL
TAF AMD
KFLL 270315Z 2703/2724 19008KT P6SM SCT120
     FM271300 22013G18KT P6SM VCSH SCT025 SCT050
     FM271700 25019G28KT P6SM VCTS SCT020 BKN035CB=



000
FTUS42 KMFL 270315 AAA
TAFMIA
TAF AMD
KMIA 270315Z 2703/2724 19007KT P6SM SCT070
     FM271300 21013G18KT P6SM VCSH SCT025 SCT050
     FM271700 24019G28KT P6SM VCTS SCT020 BKN035CB=



000
FTUS42 KMFL 270315 AAA
TAFAPF
TAF AMD
KAPF 270315Z 2703/2724 20004KT P6SM FEW025
     FM271300 23013G18KT P6SM VCSH SCT025 SCT050
     FM271700 26020G30KT P6SM VCTS SCT020 BKN035CB=



000
FTUS42 KMFL 270315 AAA
TAFPBI
TAF AMD
KPBI 270315Z 2703/2724 20006KT P6SM FEW025 SCT120
     FM271300 23013G18KT P6SM VCSH SCT025 SCT050
     FM271700 25020G30KT P6SM VCTS SCT020 BKN035CB=



000
FTUS42 KMFL 270315 AAA
TAFPBI
TAF AMD
KPBI 270315Z 2703/2724 20006KT P6SM FEW025 SCT120
     FM271300 23013G18KT P6SM VCSH SCT025 SCT050
     FM271700 25020G30KT P6SM VCTS SCT020 BKN035CB=



000
FTUS42 KMFL 262337
TAFAPF
TAF
KAPF 262337Z 2700/2724 20011KT P6SM FEW015 SCT025
     FM270200 21006KT P6SM FEW025
     FM271300 23013G18KT P6SM VCSH SCT025 SCT050
     FM271700 26020G30KT P6SM VCTS SCT020 BKN035CB=



000
FTUS42 KMFL 262337
TAFFLL
TAF
KFLL 262337Z 2700/2724 19013G18KT P6SM FEW025 SCT040
     FM270200 20010KT P6SM FEW025 SCT040
     FM271300 22013G18KT P6SM VCSH SCT025 SCT050
     FM271700 25019G28KT P6SM VCTS SCT020 BKN035CB=



000
FTUS42 KMFL 262337
TAFPBI
TAF
KPBI 262337Z 2700/2724 19013G18KT P6SM VCSH FEW025 SCT045 BKN150
     FM270200 21007KT P6SM FEW025 SCT250
     FM271300 23013G18KT P6SM VCSH SCT025 SCT050
     FM271700 25020G30KT P6SM VCTS SCT020 BKN035CB=



000
FTUS42 KMFL 262337
TAFFLL
TAF
KFLL 262337Z 2700/2724 19013G18KT P6SM FEW025 SCT040
     FM270200 20010KT P6SM FEW025 SCT040
     FM271300 22013G18KT P6SM VCSH SCT025 SCT050
     FM271700 25019G28KT P6SM VCTS SCT020 BKN035CB=



000
FTUS42 KMFL 262337
TAFMIA
TAF
KMIA 262337Z 2700/2724 17012G18KT P6SM FEW025
     FM270200 19008KT P6SM FEW025
     FM271300 21013G18KT P6SM VCSH SCT025 SCT050
     FM271700 24019G28KT P6SM VCTS SCT020 BKN035CB=



000
FTUS42 KMFL 262337
TAFPBI
TAF
KPBI 262337Z 2700/2724 19013G18KT P6SM VCSH FEW025 SCT045 BKN150
     FM270200 21007KT P6SM FEW025 SCT250
     FM271300 23013G18KT P6SM VCSH SCT025 SCT050
     FM271700 25020G30KT P6SM VCTS SCT020 BKN035CB=



000
FTUS42 KMFL 262337
TAFAPF
TAF
KAPF 262337Z 2700/2724 20011KT P6SM FEW015 SCT025
     FM270200 21006KT P6SM FEW025
     FM271300 23013G18KT P6SM VCSH SCT025 SCT050
     FM271700 26020G30KT P6SM VCTS SCT020 BKN035CB=



000
FTUS42 KMFL 262337
TAFMIA
TAF
KMIA 262337Z 2700/2724 17012G18KT P6SM FEW025
     FM270200 19008KT P6SM FEW025
     FM271300 21013G18KT P6SM VCSH SCT025 SCT050
     FM271700 24019G28KT P6SM VCTS SCT020 BKN035CB=



000
FTUS42 KMFL 262337
TAFPBI
TAF
KPBI 262337Z 2700/2724 19013G18KT P6SM VCSH FEW025 SCT045 BKN150
     FM270200 21007KT P6SM FEW025 SCT250
     FM271300 23013G18KT P6SM VCSH SCT025 SCT050
     FM271700 25020G30KT P6SM VCTS SCT020 BKN035CB=



000
FTUS42 KMFL 262337
TAFAPF
TAF
KAPF 262337Z 2700/2724 20011KT P6SM FEW015 SCT025
     FM270200 21006KT P6SM FEW025
     FM271300 23013G18KT P6SM VCSH SCT025 SCT050
     FM271700 26020G30KT P6SM VCTS SCT020 BKN035CB=



000
FTUS42 KMFL 262337
TAFFLL
TAF
KFLL 262337Z 2700/2724 19013G18KT P6SM FEW025 SCT040
     FM270200 20010KT P6SM FEW025 SCT040
     FM271300 22013G18KT P6SM VCSH SCT025 SCT050
     FM271700 25019G28KT P6SM VCTS SCT020 BKN035CB=



000
FTUS42 KMFL 262337
TAFMIA
TAF
KMIA 262337Z 2700/2724 17012G18KT P6SM FEW025
     FM270200 19008KT P6SM FEW025
     FM271300 21013G18KT P6SM VCSH SCT025 SCT050
     FM271700 24019G28KT P6SM VCTS SCT020 BKN035CB=



000
FTUS42 KMFL 262337
TAFPBI
TAF
KPBI 262337Z 2700/2724 19013G18KT P6SM VCSH FEW025 SCT045 BKN150
     FM270200 21007KT P6SM FEW025 SCT250
     FM271300 23013G18KT P6SM VCSH SCT025 SCT050
     FM271700 25020G30KT P6SM VCTS SCT020 BKN035CB=



000
FTUS42 KMFL 262337
TAFMIA
TAF
KMIA 262337Z 2700/2724 17012G18KT P6SM FEW025
     FM270200 19008KT P6SM FEW025
     FM271300 21013G18KT P6SM VCSH SCT025 SCT050
     FM271700 24019G28KT P6SM VCTS SCT020 BKN035CB=



000
FTUS42 KMFL 262337
TAFAPF
TAF
KAPF 262337Z 2700/2724 20011KT P6SM FEW015 SCT025
     FM270200 21006KT P6SM FEW025
     FM271300 23013G18KT P6SM VCSH SCT025 SCT050
     FM271700 26020G30KT P6SM VCTS SCT020 BKN035CB=



000
FTUS42 KMFL 262337
TAFFLL
TAF
KFLL 262337Z 2700/2724 19013G18KT P6SM FEW025 SCT040
     FM270200 20010KT P6SM FEW025 SCT040
     FM271300 22013G18KT P6SM VCSH SCT025 SCT050
     FM271700 25019G28KT P6SM VCTS SCT020 BKN035CB=



000
FTUS42 KMFL 262034 AAB
TAFPBI
TAF AMD
KPBI 262034Z 2621/2718 16016G23KT P6SM VCSH SCT025 BKN040
     FM270000 18007KT P6SM BKN250=



000
FTUS42 KMFL 262034 AAA
TAFFLL
TAF AMD
KFLL 262034Z 2621/2718 16017G25KT P6SM SCT035 SCT250
     FM270200 17008KT P6SM BKN250=



000
FTUS42 KMFL 262034 AAB
TAFPBI
TAF AMD
KPBI 262034Z 2621/2718 16016G23KT P6SM VCSH SCT025 BKN040
     FM270000 18007KT P6SM BKN250=



000
FTUS42 KMFL 262034 AAA
TAFFLL
TAF AMD
KFLL 262034Z 2621/2718 16017G25KT P6SM SCT035 SCT250
     FM270200 17008KT P6SM BKN250=



000
FTUS42 KMFL 262034 AAA
TAFMIA
TAF AMD
KMIA 262034Z 2621/2718 16017G24KT P6SM SCT030
     FM270000 17006KT P6SM BKN250=



000
FTUS42 KMFL 262034 AAA
TAFMIA
TAF AMD
KMIA 262034Z 2621/2718 16017G24KT P6SM SCT030
     FM270000 17006KT P6SM BKN250=



000
FTUS42 KMFL 262034 AAA
TAFAPF
TAF AMD
KAPF 262034Z 2621/2718 20016G23KT P6SM SCT015 BKN035
     FM270100 19004KT P6SM BKN250=



000
FTUS42 KMFL 261756 AAA
TAFPBI
TAF AMD
KPBI 261756Z 2618/2718 VRB15G25KT 5SM SHRA VCTS BKN030CB
     FM261830 17012KT P6SM VCSH BKN050
     FM262000 17014G20KT P6SM VCTS BKN060CB
     FM270100 18007KT P6SM BKN250=



000
FTUS42 KMFL 261756 AAA
TAFPBI
TAF AMD
KPBI 261756Z 2618/2718 VRB15G25KT 5SM SHRA VCTS BKN030CB
     FM261830 17012KT P6SM VCSH BKN050
     FM262000 17014G20KT P6SM VCTS BKN060CB
     FM270100 18007KT P6SM BKN250=



000
FTUS42 KMFL 261756 AAA
TAFPBI
TAF AMD
KPBI 261756Z 2618/2718 VRB15G25KT 5SM SHRA VCTS BKN030CB
     FM261830 17012KT P6SM VCSH BKN050
     FM262000 17014G20KT P6SM VCTS BKN060CB
     FM270100 18007KT P6SM BKN250=



000
FTUS42 KMFL 261756 AAA
TAFPBI
TAF AMD
KPBI 261756Z 2618/2718 VRB15G25KT 5SM SHRA VCTS BKN030CB
     FM261830 17012KT P6SM VCSH BKN050
     FM262000 17014G20KT P6SM VCTS BKN060CB
     FM270100 18007KT P6SM BKN250=



000
FTUS42 KMFL 261736
TAFFLL
TAF
KFLL 261736Z 2618/2718 15014KT P6SM VCSH BKN035
     FM270200 17008KT P6SM BKN250=



000
FTUS42 KMFL 261736
TAFMIA
TAF
KMIA 261736Z 2618/2718 13014KT P6SM VCSH BKN080
     FM270000 17006KT P6SM BKN250=



000
FTUS42 KMFL 261736
TAFPBI
TAF
KPBI 261736Z 2618/2718 16014KT P6SM VCSH SCT040 BKN070
     FM262000 17014G20KT P6SM VCTS BKN060CB
     FM270100 18007KT P6SM BKN250=



000
FTUS42 KMFL 261736
TAFAPF
TAF
KAPF 261736Z 2618/2718 18012KT P6SM VCSH BKN030
     FM270100 19004KT P6SM BKN250=



000
FTUS42 KMFL 261736
TAFMIA
TAF
KMIA 261736Z 2618/2718 13014KT P6SM VCSH BKN080
     FM270000 17006KT P6SM BKN250=



000
FTUS42 KMFL 261736
TAFPBI
TAF
KPBI 261736Z 2618/2718 16014KT P6SM VCSH SCT040 BKN070
     FM262000 17014G20KT P6SM VCTS BKN060CB
     FM270100 18007KT P6SM BKN250=



000
FTUS42 KMFL 261736
TAFFLL
TAF
KFLL 261736Z 2618/2718 15014KT P6SM VCSH BKN035
     FM270200 17008KT P6SM BKN250=



000
FTUS42 KMFL 261736
TAFAPF
TAF
KAPF 261736Z 2618/2718 18012KT P6SM VCSH BKN030
     FM270100 19004KT P6SM BKN250=



000
FTUS42 KMFL 261736
TAFPBI
TAF
KPBI 261736Z 2618/2718 16014KT P6SM VCSH SCT040 BKN070
     FM262000 17014G20KT P6SM VCTS BKN060CB
     FM270100 18007KT P6SM BKN250=



000
FTUS42 KMFL 261736
TAFMIA
TAF
KMIA 261736Z 2618/2718 13014KT P6SM VCSH BKN080
     FM270000 17006KT P6SM BKN250=



000
FTUS42 KMFL 261736
TAFFLL
TAF
KFLL 261736Z 2618/2718 15014KT P6SM VCSH BKN035
     FM270200 17008KT P6SM BKN250=



000
FTUS42 KMFL 261736
TAFAPF
TAF
KAPF 261736Z 2618/2718 18012KT P6SM VCSH BKN030
     FM270100 19004KT P6SM BKN250=



000
FTUS42 KMFL 261736
TAFFLL
TAF
KFLL 261736Z 2618/2718 15014KT P6SM VCSH BKN035
     FM270200 17008KT P6SM BKN250=



000
FTUS42 KMFL 261736
TAFMIA
TAF
KMIA 261736Z 2618/2718 13014KT P6SM VCSH BKN080
     FM270000 17006KT P6SM BKN250=



000
FTUS42 KMFL 261736
TAFPBI
TAF
KPBI 261736Z 2618/2718 16014KT P6SM VCSH SCT040 BKN070
     FM262000 17014G20KT P6SM VCTS BKN060CB
     FM270100 18007KT P6SM BKN250=



000
FTUS42 KMFL 261736
TAFAPF
TAF
KAPF 261736Z 2618/2718 18012KT P6SM VCSH BKN030
     FM270100 19004KT P6SM BKN250=



000
FTUS42 KMFL 261635 AAB
TAFAPF
TAF AMD
KAPF 261635Z 2617/2712 18012KT P6SM VCSH BKN030
     FM262200 19011KT P6SM BKN250=



000
FTUS42 KMFL 261635 AAB
TAFAPF
TAF AMD
KAPF 261635Z 2617/2712 18012KT P6SM VCSH BKN030
     FM262200 19011KT P6SM BKN250=



000
FTUS42 KMFL 261505 AAA
TAFPBI
TAF AMD
KPBI 261505Z 2615/2712 18007KT P6SM VCSH BKN090 BKN150
     FM261800 17013KT P6SM VCSH BKN050
     FM262000 17014G20KT P6SM VCTS BKN060CB
     FM262300 17011KT P6SM BKN250=



000
FTUS42 KMFL 261505 AAA
TAFAPF
TAF AMD
KAPF 261505Z 2615/2712 14007KT P6SM SKC
     FM261700 19013G19KT P6SM VCSH SCT050 BKN250
     FM262200 19011KT P6SM BKN250=



000
FTUS42 KMFL 261505 AAA
TAFMIA
TAF AMD
KMIA 261505Z 2615/2712 13011KT P6SM VCSH SCT025 BKN140
     FM261800 15011G17KT P6SM VCSH BKN060 BKN250
     FM262300 16009KT P6SM BKN250=



000
FTUS42 KMFL 261505 AAA
TAFFLL
TAF AMD
KFLL 261505Z 2615/2712 14010KT P6SM VCSH SCT070 BKN110
     FM261800 16012G18KT P6SM VCSH BKN050
     FM270000 17008KT P6SM BKN250=



000
FTUS42 KMFL 261124
TAFMIA
TAF
KMIA 261124Z 2612/2712 14005KT P6SM BKN110
     FM261500 16008G15KT P6SM VCSH SCT030
     FM261800 15011G17KT P6SM VCSH BKN060 BKN250
     FM262300 16009KT P6SM BKN250=



000
FTUS42 KMFL 261124
TAFAPF
TAF
KAPF 261124Z 2612/2712 13006KT P6SM BKN110
     FM261700 19013G19KT P6SM VCSH SCT050 BKN250
     FM262200 19011KT P6SM BKN250=



000
FTUS42 KMFL 261124
TAFPBI
TAF
KPBI 261124Z 2612/2712 17004KT P6SM BKN100
     FM261400 15011KT P6SM VCSH SCT030
     FM261800 17013KT P6SM VCSH BKN050
     FM262000 17014G20KT P6SM VCTS BKN060CB
     FM262300 17011KT P6SM BKN250=



000
FTUS42 KMFL 261124
TAFFLL
TAF
KFLL 261124Z 2612/2712 17003KT P6SM BKN100
     FM261400 16010KT P6SM VCSH SCT030 SCT250
     FM261800 16012G18KT P6SM VCSH BKN050
     FM270000 17008KT P6SM BKN250=



000
FTUS42 KMFL 261124
TAFPBI
TAF
KPBI 261124Z 2612/2712 17004KT P6SM BKN100
     FM261400 15011KT P6SM VCSH SCT030
     FM261800 17013KT P6SM VCSH BKN050
     FM262000 17014G20KT P6SM VCTS BKN060CB
     FM262300 17011KT P6SM BKN250=



000
FTUS42 KMFL 261124
TAFAPF
TAF
KAPF 261124Z 2612/2712 13006KT P6SM BKN110
     FM261700 19013G19KT P6SM VCSH SCT050 BKN250
     FM262200 19011KT P6SM BKN250=



000
FTUS42 KMFL 261124
TAFMIA
TAF
KMIA 261124Z 2612/2712 14005KT P6SM BKN110
     FM261500 16008G15KT P6SM VCSH SCT030
     FM261800 15011G17KT P6SM VCSH BKN060 BKN250
     FM262300 16009KT P6SM BKN250=



000
FTUS42 KMFL 261124
TAFFLL
TAF
KFLL 261124Z 2612/2712 17003KT P6SM BKN100
     FM261400 16010KT P6SM VCSH SCT030 SCT250
     FM261800 16012G18KT P6SM VCSH BKN050
     FM270000 17008KT P6SM BKN250=



000
FTUS42 KMFL 260902 AAA
TAFFLL
TAF AMD
KFLL 260902Z 2609/2706 17004KT P6SM FEW050 SCT150
     FM261400 16010KT P6SM VCSH SCT030 SCT250
     FM261800 16012G18KT P6SM VCSH BKN050
     FM270000 17008KT P6SM BKN250=



000
FTUS42 KMFL 260902 AAA
TAFFLL
TAF AMD
KFLL 260902Z 2609/2706 17004KT P6SM FEW050 SCT150
     FM261400 16010KT P6SM VCSH SCT030 SCT250
     FM261800 16012G18KT P6SM VCSH BKN050
     FM270000 17008KT P6SM BKN250=



000
FTUS42 KMFL 260902 AAA
TAFAPF
TAF AMD
KAPF 260902Z 2609/2706 00000KT P6SM FEW040
     FM261400 14007KT P6SM SCT030 BKN250
     FM261700 19013G19KT P6SM VCSH SCT050 BKN250
     FM262200 19011KT P6SM BKN250=



000
FTUS42 KMFL 260902 AAA
TAFPBI
TAF AMD
KPBI 260902Z 2609/2706 12003KT P6SM SCT150
     FM261400 15011KT P6SM VCSH SCT030
     FM261800 17013KT P6SM VCSH BKN050
     FM262000 17014G20KT P6SM VCTS BKN060CB
     FM262300 17011KT P6SM BKN250=



000
FTUS42 KMFL 260902 AAA
TAFMIA
TAF AMD
KMIA 260902Z 2609/2706 00000KT P6SM SCT120
     FM261300 16008G15KT P6SM VCSH SCT030
     FM261800 15011G17KT P6SM VCSH BKN060 BKN250
     FM262300 16009KT P6SM BKN250=



000
FTUS42 KMFL 260902 AAA
TAFMIA
TAF AMD
KMIA 260902Z 2609/2706 00000KT P6SM SCT120
     FM261300 16008G15KT P6SM VCSH SCT030
     FM261800 15011G17KT P6SM VCSH BKN060 BKN250
     FM262300 16009KT P6SM BKN250=



000
FTUS42 KMFL 260902 AAA
TAFAPF
TAF AMD
KAPF 260902Z 2609/2706 00000KT P6SM FEW040
     FM261400 14007KT P6SM SCT030 BKN250
     FM261700 19013G19KT P6SM VCSH SCT050 BKN250
     FM262200 19011KT P6SM BKN250=



000
FTUS42 KMFL 260902 AAA
TAFPBI
TAF AMD
KPBI 260902Z 2609/2706 12003KT P6SM SCT150
     FM261400 15011KT P6SM VCSH SCT030
     FM261800 17013KT P6SM VCSH BKN050
     FM262000 17014G20KT P6SM VCTS BKN060CB
     FM262300 17011KT P6SM BKN250=



000
FTUS42 KMFL 260521
TAFPBI
TAF
KPBI 260521Z 2606/2706 11003KT P6SM SCT080
     FM261400 15011KT P6SM VCSH SCT030
     FM261800 17013KT P6SM VCSH BKN050
     FM262000 17014G20KT P6SM VCTS BKN060CB
     FM262300 17011KT P6SM BKN250=



000
FTUS42 KMFL 260521
TAFFLL
TAF
KFLL 260521Z 2606/2706 17005KT P6SM FEW060 BKN120
     FM261400 16010KT P6SM VCSH SCT030 SCT250
     FM261800 16012G18KT P6SM VCSH BKN050
     FM270000 17008KT P6SM BKN250=



000
FTUS42 KMFL 260521
TAFPBI
TAF
KPBI 260521Z 2606/2706 11003KT P6SM SCT080
     FM261400 15011KT P6SM VCSH SCT030
     FM261800 17013KT P6SM VCSH BKN050
     FM262000 17014G20KT P6SM VCTS BKN060CB
     FM262300 17011KT P6SM BKN250=



000
FTUS42 KMFL 260521
TAFMIA
TAF
KMIA 260521Z 2606/2706 16003KT P6SM FEW050 SCT120
     FM261300 16008G15KT P6SM VCSH SCT030
     FM261800 15011G17KT P6SM VCSH BKN060 BKN250
     FM262300 16009KT P6SM BKN250=



000
FTUS42 KMFL 260521
TAFFLL
TAF
KFLL 260521Z 2606/2706 17005KT P6SM FEW060 BKN120
     FM261400 16010KT P6SM VCSH SCT030 SCT250
     FM261800 16012G18KT P6SM VCSH BKN050
     FM270000 17008KT P6SM BKN250=



000
FTUS42 KMFL 260521
TAFMIA
TAF
KMIA 260521Z 2606/2706 16003KT P6SM FEW050 SCT120
     FM261300 16008G15KT P6SM VCSH SCT030
     FM261800 15011G17KT P6SM VCSH BKN060 BKN250
     FM262300 16009KT P6SM BKN250=



000
FTUS42 KMFL 260521
TAFAPF
TAF
KAPF 260521Z 2606/2706 00000KT P6SM FEW025
      TEMPO 2610/2614 4SM BR SCT015
     FM261400 14007KT P6SM SCT030 BKN250
     FM261700 19013G19KT P6SM VCSH SCT050 BKN250
     FM262200 19011KT P6SM BKN250=



000
FTUS42 KMFL 260253 AAA
TAFAPF
TAF AMD
KAPF 260253Z 2603/2624 00000KT P6SM FEW025
      TEMPO 2610/2614 4SM BR SCT015
     FM261400 14007KT P6SM VCSH SCT030 BKN250
     FM261800 19013G19KT P6SM VCSH BKN250
     FM262100 19011KT P6SM VCSH BKN250=



000
FTUS42 KMFL 260253 AAA
TAFAPF
TAF AMD
KAPF 260253Z 2603/2624 00000KT P6SM FEW025
      TEMPO 2610/2614 4SM BR SCT015
     FM261400 14007KT P6SM VCSH SCT030 BKN250
     FM261800 19013G19KT P6SM VCSH BKN250
     FM262100 19011KT P6SM VCSH BKN250=



000
FTUS42 KMFL 260253 AAA
TAFPBI
TAF AMD
KPBI 260253Z 2603/2624 10004KT P6SM SCT100
     FM261300 15011KT P6SM VCSH SCT030
     FM261800 17013KT P6SM VCSH BKN050
     FM262000 17014G20KT P6SM VCTS BKN060CB
     FM262300 17011KT P6SM VCSH BKN250=



000
FTUS42 KMFL 260253 AAA
TAFPBI
TAF AMD
KPBI 260253Z 2603/2624 10004KT P6SM SCT100
     FM261300 15011KT P6SM VCSH SCT030
     FM261800 17013KT P6SM VCSH BKN050
     FM262000 17014G20KT P6SM VCTS BKN060CB
     FM262300 17011KT P6SM VCSH BKN250=



000
FTUS42 KMFL 260253 AAA
TAFMIA
TAF AMD
KMIA 260253Z 2603/2624 16005KT P6SM FEW050 SCT080
     FM261300 16008G15KT P6SM VCSH SCT030
     FM261800 15011G17KT P6SM VCSH BKN060 BKN250
     FM262000 16009KT P6SM BKN250=



000
FTUS42 KMFL 260253 AAB
TAFFLL
TAF AMD
KFLL 260253Z 2603/2624 22006KT P6SM FEW060 BKN090
     FM261300 16010KT P6SM VCSH SCT030 SCT250
     FM261800 16012G18KT P6SM VCSH SCT250
     FM261900 17011KT P6SM VCSH BKN250=



000
FTUS42 KMFL 260253 AAB
TAFFLL
TAF AMD
KFLL 260253Z 2603/2624 22006KT P6SM FEW060 BKN090
     FM261300 16010KT P6SM VCSH SCT030 SCT250
     FM261800 16012G18KT P6SM VCSH SCT250
     FM261900 17011KT P6SM VCSH BKN250=



000
FTUS42 KMFL 260253 AAA
TAFMIA
TAF AMD
KMIA 260253Z 2603/2624 16005KT P6SM FEW050 SCT080
     FM261300 16008G15KT P6SM VCSH SCT030
     FM261800 15011G17KT P6SM VCSH BKN060 BKN250
     FM262000 16009KT P6SM BKN250=



000
FTUS42 KMFL 260009 AAA
TAFFLL
TAF AMD
KFLL 260009Z 2600/2624 14006KT P6SM VCSH FEW035 SCT070 BKN250
     FM261300 16010KT P6SM VCSH SCT030 SCT250
     FM261800 16012G18KT P6SM VCSH SCT250
     FM261900 17011KT P6SM VCSH BKN250=



000
FTUS42 KMFL 260009 AAA
TAFFLL
TAF AMD
KFLL 260009Z 2600/2624 14006KT P6SM VCSH FEW035 SCT070 BKN250
     FM261300 16010KT P6SM VCSH SCT030 SCT250
     FM261800 16012G18KT P6SM VCSH SCT250
     FM261900 17011KT P6SM VCSH BKN250=



000
FTUS42 KMFL 252329
TAFPBI
TAF
KPBI 252329Z 2600/2624 12005KT P6SM FEW025
     FM261300 15011KT P6SM VCSH SCT030
     FM261800 17013KT P6SM VCSH BKN050
     FM262000 17014G20KT P6SM VCTS BKN060CB
     FM262300 17011KT P6SM VCSH BKN250=



000
FTUS42 KMFL 252329
TAFAPF
TAF
KAPF 252329Z 2600/2624 00000KT P6SM FEW025
     FM261300 14007KT P6SM VCSH SCT030 BKN250
     FM261800 19013G19KT P6SM VCSH BKN250
     FM262100 19011KT P6SM VCSH BKN250=



000
FTUS42 KMFL 252329
TAFPBI
TAF
KPBI 252329Z 2600/2624 12005KT P6SM FEW025
     FM261300 15011KT P6SM VCSH SCT030
     FM261800 17013KT P6SM VCSH BKN050
     FM262000 17014G20KT P6SM VCTS BKN060CB
     FM262300 17011KT P6SM VCSH BKN250=



000
FTUS42 KMFL 252329
TAFFLL
TAF
KFLL 252329Z 2600/2624 14005KT P6SM FEW025
     FM261300 16010KT P6SM VCSH SCT030 SCT250
     FM261800 16012G18KT P6SM VCSH SCT250
     FM261900 17011KT P6SM VCSH BKN250=



000
FTUS42 KMFL 252329
TAFAPF
TAF
KAPF 252329Z 2600/2624 00000KT P6SM FEW025
     FM261300 14007KT P6SM VCSH SCT030 BKN250
     FM261800 19013G19KT P6SM VCSH BKN250
     FM262100 19011KT P6SM VCSH BKN250=



000
FTUS42 KMFL 252329
TAFAPF
TAF
KAPF 252329Z 2600/2624 00000KT P6SM FEW025
     FM261300 14007KT P6SM VCSH SCT030 BKN250
     FM261800 19013G19KT P6SM VCSH BKN250
     FM262100 19011KT P6SM VCSH BKN250=



000
FTUS42 KMFL 252329
TAFMIA
TAF
KMIA 252329Z 2600/2624 14004KT P6SM FEW025
     FM261300 16008G15KT P6SM VCSH SCT030
     FM261800 15011G17KT P6SM VCSH BKN060 BKN250
     FM262000 16009KT P6SM BKN250=



000
FTUS42 KMFL 252329
TAFFLL
TAF
KFLL 252329Z 2600/2624 14005KT P6SM FEW025
     FM261300 16010KT P6SM VCSH SCT030 SCT250
     FM261800 16012G18KT P6SM VCSH SCT250
     FM261900 17011KT P6SM VCSH BKN250=



000
FTUS42 KMFL 252329
TAFFLL
TAF
KFLL 252329Z 2600/2624 14005KT P6SM FEW025
     FM261300 16010KT P6SM VCSH SCT030 SCT250
     FM261800 16012G18KT P6SM VCSH SCT250
     FM261900 17011KT P6SM VCSH BKN250=



000
FTUS42 KMFL 252329
TAFMIA
TAF
KMIA 252329Z 2600/2624 14004KT P6SM FEW025
     FM261300 16008G15KT P6SM VCSH SCT030
     FM261800 15011G17KT P6SM VCSH BKN060 BKN250
     FM262000 16009KT P6SM BKN250=



000
FTUS42 KMFL 252329
TAFMIA
TAF
KMIA 252329Z 2600/2624 14004KT P6SM FEW025
     FM261300 16008G15KT P6SM VCSH SCT030
     FM261800 15011G17KT P6SM VCSH BKN060 BKN250
     FM262000 16009KT P6SM BKN250=



000
FTUS42 KMFL 252329
TAFPBI
TAF
KPBI 252329Z 2600/2624 12005KT P6SM FEW025
     FM261300 15011KT P6SM VCSH SCT030
     FM261800 17013KT P6SM VCSH BKN050
     FM262000 17014G20KT P6SM VCTS BKN060CB
     FM262300 17011KT P6SM VCSH BKN250=



000
FTUS42 KMFL 252329
TAFFLL
TAF
KFLL 252329Z 2600/2624 14005KT P6SM FEW025
     FM261300 16010KT P6SM VCSH SCT030 SCT250
     FM261800 16012G18KT P6SM VCSH SCT250
     FM261900 17011KT P6SM VCSH BKN250=



000
FTUS42 KMFL 252329
TAFPBI
TAF
KPBI 252329Z 2600/2624 12005KT P6SM FEW025
     FM261300 15011KT P6SM VCSH SCT030
     FM261800 17013KT P6SM VCSH BKN050
     FM262000 17014G20KT P6SM VCTS BKN060CB
     FM262300 17011KT P6SM VCSH BKN250=



000
FTUS42 KMFL 252329
TAFAPF
TAF
KAPF 252329Z 2600/2624 00000KT P6SM FEW025
     FM261300 14007KT P6SM VCSH SCT030 BKN250
     FM261800 19013G19KT P6SM VCSH BKN250
     FM262100 19011KT P6SM VCSH BKN250=



000
FTUS42 KMFL 252329
TAFMIA
TAF
KMIA 252329Z 2600/2624 14004KT P6SM FEW025
     FM261300 16008G15KT P6SM VCSH SCT030
     FM261800 15011G17KT P6SM VCSH BKN060 BKN250
     FM262000 16009KT P6SM BKN250=



000
FTUS42 KMFL 252123 AAB
TAFPBI
TAF AMD
KPBI 252123Z 2521/2618 12008KT P6SM VCSH SCT035 BKN050
     FM260000 15005KT P6SM FEW025
     FM261300 16009KT P6SM VCSH SCT030 BKN050=



000
FTUS42 KMFL 252123 AAB
TAFFLL
TAF AMD
KFLL 252123Z 2521/2618 11008KT P6SM FEW025 SCT035
     FM260000 13005KT P6SM FEW030
     FM261300 16011KT P6SM VCSH SCT030 BKN050=



000
FTUS42 KMFL 252123 AAB
TAFMIA
TAF AMD
KMIA 252123Z 2521/2618 14008KT P6SM FEW025 SCT035
     FM260000 15004KT P6SM FEW030
     FM261300 16009KT P6SM VCSH SCT030 BKN050=



000
FTUS42 KMFL 252123 AAB
TAFFLL
TAF AMD
KFLL 252123Z 2521/2618 11008KT P6SM FEW025 SCT035
     FM260000 13005KT P6SM FEW030
     FM261300 16011KT P6SM VCSH SCT030 BKN050=



000
FTUS42 KMFL 252123 AAB
TAFAPF
TAF AMD
KAPF 252123Z 2521/2618 28007KT P6SM FEW007
     FM260000 VRB03KT P6SM FEW020
     FM261600 17010KT P6SM VCSH SCT035 BKN200=



000
FTUS42 KMFL 252123 AAB
TAFAPF
TAF AMD
KAPF 252123Z 2521/2618 28007KT P6SM FEW007
     FM260000 VRB03KT P6SM FEW020
     FM261600 17010KT P6SM VCSH SCT035 BKN200=



000
FTUS42 KMFL 252123 AAB
TAFFLL
TAF AMD
KFLL 252123Z 2521/2618 11008KT P6SM FEW025 SCT035
     FM260000 13005KT P6SM FEW030
     FM261300 16011KT P6SM VCSH SCT030 BKN050=



000
FTUS42 KMFL 252123 AAB
TAFMIA
TAF AMD
KMIA 252123Z 2521/2618 14008KT P6SM FEW025 SCT035
     FM260000 15004KT P6SM FEW030
     FM261300 16009KT P6SM VCSH SCT030 BKN050=



000
FTUS42 KMFL 252123 AAB
TAFPBI
TAF AMD
KPBI 252123Z 2521/2618 12008KT P6SM VCSH SCT035 BKN050
     FM260000 15005KT P6SM FEW025
     FM261300 16009KT P6SM VCSH SCT030 BKN050=



000
FTUS42 KMFL 252123 AAB
TAFFLL
TAF AMD
KFLL 252123Z 2521/2618 11008KT P6SM FEW025 SCT035
     FM260000 13005KT P6SM FEW030
     FM261300 16011KT P6SM VCSH SCT030 BKN050=



000
FTUS42 KMFL 252123 AAB
TAFPBI
TAF AMD
KPBI 252123Z 2521/2618 12008KT P6SM VCSH SCT035 BKN050
     FM260000 15005KT P6SM FEW025
     FM261300 16009KT P6SM VCSH SCT030 BKN050=



000
FTUS42 KMFL 252123 AAB
TAFAPF
TAF AMD
KAPF 252123Z 2521/2618 28007KT P6SM FEW007
     FM260000 VRB03KT P6SM FEW020
     FM261600 17010KT P6SM VCSH SCT035 BKN200=



000
FTUS42 KMFL 252123 AAB
TAFMIA
TAF AMD
KMIA 252123Z 2521/2618 14008KT P6SM FEW025 SCT035
     FM260000 15004KT P6SM FEW030
     FM261300 16009KT P6SM VCSH SCT030 BKN050=



000
FTUS42 KMFL 252123 AAB
TAFAPF
TAF AMD
KAPF 252123Z 2521/2618 28007KT P6SM FEW007
     FM260000 VRB03KT P6SM FEW020
     FM261600 17010KT P6SM VCSH SCT035 BKN200=



000
FTUS42 KMFL 252123 AAB
TAFMIA
TAF AMD
KMIA 252123Z 2521/2618 14008KT P6SM FEW025 SCT035
     FM260000 15004KT P6SM FEW030
     FM261300 16009KT P6SM VCSH SCT030 BKN050=



000
FTUS42 KMFL 252107 AAA
TAFFLL
TAF AMD
KFLL 252107Z 2521/2618 11008KT P6SM FEW025 SCT035
     FM260000 13005KT P6SM FEW030
     FM261300 16011KT P6SM VCSH SCT030 BKN050=



000
FTUS42 KMFL 252107 AAA
TAFMIA
TAF AMD
KMIA 252107Z 2521/2618 14008KT P6SM FEW025 SCT035
     FM260000 15004KT P6SM FEW030
     FM261300 16009KT P6SM VCSH SCT030 BKN050=



000
FTUS42 KMFL 252107 AAA
TAFPBI
TAF AMD
KPBI 252107Z 2521/2618 12008KT P6SM SCT035 BKN050
     FM260000 15005KT P6SM FEW025
     FM261300 16009KT P6SM VCSH SCT030 BKN050=



000
FTUS42 KMFL 252107 AAA
TAFAPF
TAF AMD
KAPF 252107Z 2521/2618 28007KT P6SM FEW007
     FM260000 VRB03KT P6SM FEW020
     FM261600 17010KT P6SM VCSH SCT035 BKN200=



000
FTUS42 KMFL 252107 AAA
TAFFLL
TAF AMD
KFLL 252107Z 2521/2618 11008KT P6SM FEW025 SCT035
     FM260000 13005KT P6SM FEW030
     FM261300 16011KT P6SM VCSH SCT030 BKN050=



000
FTUS42 KMFL 252107 AAA
TAFAPF
TAF AMD
KAPF 252107Z 2521/2618 28007KT P6SM FEW007
     FM260000 VRB03KT P6SM FEW020
     FM261600 17010KT P6SM VCSH SCT035 BKN200=



000
FTUS42 KMFL 252107 AAA
TAFPBI
TAF AMD
KPBI 252107Z 2521/2618 12008KT P6SM SCT035 BKN050
     FM260000 15005KT P6SM FEW025
     FM261300 16009KT P6SM VCSH SCT030 BKN050=



000
FTUS42 KMFL 252107 AAA
TAFMIA
TAF AMD
KMIA 252107Z 2521/2618 14008KT P6SM FEW025 SCT035
     FM260000 15004KT P6SM FEW030
     FM261300 16009KT P6SM VCSH SCT030 BKN050=



000
FTUS42 KMFL 252107 AAA
TAFMIA
TAF AMD
KMIA 252107Z 2521/2618 14008KT P6SM FEW025 SCT035
     FM260000 15004KT P6SM FEW030
     FM261300 16009KT P6SM VCSH SCT030 BKN050=



000
FTUS42 KMFL 252107 AAA
TAFFLL
TAF AMD
KFLL 252107Z 2521/2618 11008KT P6SM FEW025 SCT035
     FM260000 13005KT P6SM FEW030
     FM261300 16011KT P6SM VCSH SCT030 BKN050=



000
FTUS42 KMFL 252107 AAA
TAFPBI
TAF AMD
KPBI 252107Z 2521/2618 12008KT P6SM SCT035 BKN050
     FM260000 15005KT P6SM FEW025
     FM261300 16009KT P6SM VCSH SCT030 BKN050=



000
FTUS42 KMFL 252107 AAA
TAFAPF
TAF AMD
KAPF 252107Z 2521/2618 28007KT P6SM FEW007
     FM260000 VRB03KT P6SM FEW020
     FM261600 17010KT P6SM VCSH SCT035 BKN200=



000
FTUS42 KMFL 252107 AAA
TAFFLL
TAF AMD
KFLL 252107Z 2521/2618 11008KT P6SM FEW025 SCT035
     FM260000 13005KT P6SM FEW030
     FM261300 16011KT P6SM VCSH SCT030 BKN050=



000
FTUS42 KMFL 252107 AAA
TAFAPF
TAF AMD
KAPF 252107Z 2521/2618 28007KT P6SM FEW007
     FM260000 VRB03KT P6SM FEW020
     FM261600 17010KT P6SM VCSH SCT035 BKN200=



000
FTUS42 KMFL 252107 AAA
TAFMIA
TAF AMD
KMIA 252107Z 2521/2618 14008KT P6SM FEW025 SCT035
     FM260000 15004KT P6SM FEW030
     FM261300 16009KT P6SM VCSH SCT030 BKN050=



000
FTUS42 KMFL 251739
TAFAPF
TAF
KAPF 251739Z 2518/2618 28007KT P6SM FEW007
     FM260000 VRB03KT P6SM FEW020
     FM261600 17010KT P6SM VCSH SCT035 BKN200=



000
FTUS42 KMFL 251739
TAFFLL
TAF
KFLL 251739Z 2518/2618 VRB04KT P6SM FEW030
     FM251900 11008KT P6SM FEW025 SCT035
     FM260000 13005KT P6SM FEW030
     FM261300 16011KT P6SM VCSH SCT030 BKN050=



000
FTUS42 KMFL 251739
TAFFLL
TAF
KFLL 251739Z 2518/2618 VRB04KT P6SM FEW030
     FM251900 11008KT P6SM FEW025 SCT035
     FM260000 13005KT P6SM FEW030
     FM261300 16011KT P6SM VCSH SCT030 BKN050=



000
FTUS42 KMFL 251739
TAFPBI
TAF
KPBI 251739Z 2518/2618 12008KT P6SM SCT035 BKN050
     FM260000 15005KT P6SM FEW025
     FM261300 16009KT P6SM VCSH SCT030 BKN050=



000
FTUS42 KMFL 251739
TAFAPF
TAF
KAPF 251739Z 2518/2618 28007KT P6SM FEW007
     FM260000 VRB03KT P6SM FEW020
     FM261600 17010KT P6SM VCSH SCT035 BKN200=



000
FTUS42 KMFL 251739
TAFPBI
TAF
KPBI 251739Z 2518/2618 12008KT P6SM SCT035 BKN050
     FM260000 15005KT P6SM FEW025
     FM261300 16009KT P6SM VCSH SCT030 BKN050=



000
FTUS42 KMFL 251739
TAFMIA
TAF
KMIA 251739Z 2518/2618 VRB05KT P6SM FEW025 BKN300
     FM251900 14008KT P6SM FEW025 SCT035
     FM260000 15004KT P6SM FEW030
     FM261300 16009KT P6SM VCSH SCT030 BKN050=



000
FTUS42 KMFL 251739
TAFMIA
TAF
KMIA 251739Z 2518/2618 VRB05KT P6SM FEW025 BKN300
     FM251900 14008KT P6SM FEW025 SCT035
     FM260000 15004KT P6SM FEW030
     FM261300 16009KT P6SM VCSH SCT030 BKN050=



000
FTUS42 KMFL 251739
TAFPBI
TAF
KPBI 251739Z 2518/2618 12008KT P6SM SCT035 BKN050
     FM260000 15005KT P6SM FEW025
     FM261300 16009KT P6SM VCSH SCT030 BKN050=



000
FTUS42 KMFL 251739
TAFFLL
TAF
KFLL 251739Z 2518/2618 VRB04KT P6SM FEW030
     FM251900 11008KT P6SM FEW025 SCT035
     FM260000 13005KT P6SM FEW030
     FM261300 16011KT P6SM VCSH SCT030 BKN050=



000
FTUS42 KMFL 251739
TAFMIA
TAF
KMIA 251739Z 2518/2618 VRB05KT P6SM FEW025 BKN300
     FM251900 14008KT P6SM FEW025 SCT035
     FM260000 15004KT P6SM FEW030
     FM261300 16009KT P6SM VCSH SCT030 BKN050=



000
FTUS42 KMFL 251739
TAFAPF
TAF
KAPF 251739Z 2518/2618 28007KT P6SM FEW007
     FM260000 VRB03KT P6SM FEW020
     FM261600 17010KT P6SM VCSH SCT035 BKN200=



000
FTUS42 KMFL 251739
TAFMIA
TAF
KMIA 251739Z 2518/2618 VRB05KT P6SM FEW025 BKN300
     FM251900 14008KT P6SM FEW025 SCT035
     FM260000 15004KT P6SM FEW030
     FM261300 16009KT P6SM VCSH SCT030 BKN050=



000
FTUS42 KMFL 251739
TAFPBI
TAF
KPBI 251739Z 2518/2618 12008KT P6SM SCT035 BKN050
     FM260000 15005KT P6SM FEW025
     FM261300 16009KT P6SM VCSH SCT030 BKN050=



000
FTUS42 KMFL 251739
TAFAPF
TAF
KAPF 251739Z 2518/2618 28007KT P6SM FEW007
     FM260000 VRB03KT P6SM FEW020
     FM261600 17010KT P6SM VCSH SCT035 BKN200=



000
FTUS42 KMFL 251739
TAFFLL
TAF
KFLL 251739Z 2518/2618 VRB04KT P6SM FEW030
     FM251900 11008KT P6SM FEW025 SCT035
     FM260000 13005KT P6SM FEW030
     FM261300 16011KT P6SM VCSH SCT030 BKN050=



000
FTUS42 KMFL 251413 AAE
TAFAPF
TAF AMD
KAPF 251413Z 2514/2612 10004KT P6SM SCT003
     FM251700 26010KT P6SM FEW025 SCT035
     FM260000 00000KT P6SM SKC=



000
FTUS42 KMFL 251413 AAE
TAFAPF
TAF AMD
KAPF 251413Z 2514/2612 10004KT P6SM SCT003
     FM251700 26010KT P6SM FEW025 SCT035
     FM260000 00000KT P6SM SKC=



000
FTUS42 KMFL 251413 AAE
TAFAPF
TAF AMD
KAPF 251413Z 2514/2612 10004KT P6SM SCT003
     FM251700 26010KT P6SM FEW025 SCT035
     FM260000 00000KT P6SM SKC=



000
FTUS42 KMFL 251413 AAE
TAFAPF
TAF AMD
KAPF 251413Z 2514/2612 10004KT P6SM SCT003
     FM251700 26010KT P6SM FEW025 SCT035
     FM260000 00000KT P6SM SKC=



000
FTUS42 KMFL 251412 AAB
TAFMIA
TAF AMD
KMIA 251412Z 2514/2612 31004KT P6SM FEW008 BKN300
     FM251600 14008KT P6SM FEW025 SCT035=



000
FTUS42 KMFL 251411 AAD
TAFFLL
TAF AMD
KFLL 251411Z 2514/2612 30005KT P6SM SCT005 SCT250
     FM251600 11008KT P6SM FEW025 SCT035=



000
FTUS42 KMFL 251411 AAD
TAFFLL
TAF AMD
KFLL 251411Z 2514/2612 30005KT P6SM SCT005 SCT250
     FM251600 11008KT P6SM FEW025 SCT035=



000
FTUS42 KMFL 251353 AAC
TAFFLL
TAF AMD
KFLL 251353Z 2514/2612 VRB05KT 6SM BR BKN005
     FM251430 VRB05KT P6SM SCT005 SCT250
     FM251500 11008KT P6SM FEW025 SCT035=



000
FTUS42 KMFL 251353 AAC
TAFFLL
TAF AMD
KFLL 251353Z 2514/2612 VRB05KT 6SM BR BKN005
     FM251430 VRB05KT P6SM SCT005 SCT250
     FM251500 11008KT P6SM FEW025 SCT035=



000
FTUS42 KMFL 251352 AAB
TAFPBI
TAF AMD
KPBI 251352Z 2514/2612 32005KT P6SM FEW027 SCT030 BKN250
     FM251500 12008KT P6SM FEW025 SCT035
     FM260000 15005KT P6SM FEW025=



000
FTUS42 KMFL 251352 AAB
TAFPBI
TAF AMD
KPBI 251352Z 2514/2612 32005KT P6SM FEW027 SCT030 BKN250
     FM251500 12008KT P6SM FEW025 SCT035
     FM260000 15005KT P6SM FEW025=



000
FTUS42 KMFL 251351 AAD
TAFAPF
TAF AMD
KAPF 251351Z 2514/2612 09005KT 3SM BR OVC003
     FM251415 09007KT P6SM BKN004
     FM251500 08007KT P6SM SCT008
     FM251700 26010KT P6SM FEW025 SCT035
     FM260000 00000KT P6SM SKC=



000
FTUS42 KMFL 251351 AAD
TAFAPF
TAF AMD
KAPF 251351Z 2514/2612 09005KT 3SM BR OVC003
     FM251415 09007KT P6SM BKN004
     FM251500 08007KT P6SM SCT008
     FM251700 26010KT P6SM FEW025 SCT035
     FM260000 00000KT P6SM SKC=



000
FTUS42 KMFL 251332 AAB
TAFFLL
TAF AMD
KFLL 251332Z 2514/2612 29004KT 3SM BR OVC003
     FM251430 30004KT P6SM SCT005 SCT250
     FM251500 11008KT P6SM FEW025 SCT035=



000
FTUS42 KMFL 251332 AAB
TAFFLL
TAF AMD
KFLL 251332Z 2514/2612 29004KT 3SM BR OVC003
     FM251430 30004KT P6SM SCT005 SCT250
     FM251500 11008KT P6SM FEW025 SCT035=



000
FTUS42 KMFL 251332 AAB
TAFFLL
TAF AMD
KFLL 251332Z 2514/2612 29004KT 3SM BR OVC003
     FM251430 30004KT P6SM SCT005 SCT250
     FM251500 11008KT P6SM FEW025 SCT035=



000
FTUS42 KMFL 251332 AAB
TAFFLL
TAF AMD
KFLL 251332Z 2514/2612 29004KT 3SM BR OVC003
     FM251430 30004KT P6SM SCT005 SCT250
     FM251500 11008KT P6SM FEW025 SCT035=



000
FTUS42 KMFL 251330 AAC
TAFAPF
TAF AMD
KAPF 251330Z 2514/2612 08007KT 1SM BR OVC002
     FM251415 08007KT P6SM BKN004
     FM251500 08007KT P6SM SCT008
     FM251700 26010KT P6SM FEW025 SCT035
     FM260000 00000KT P6SM SKC=



000
FTUS42 KMFL 251330 AAC
TAFAPF
TAF AMD
KAPF 251330Z 2514/2612 08007KT 1SM BR OVC002
     FM251415 08007KT P6SM BKN004
     FM251500 08007KT P6SM SCT008
     FM251700 26010KT P6SM FEW025 SCT035
     FM260000 00000KT P6SM SKC=



000
FTUS42 KMFL 251258 AAB
TAFAPF
TAF AMD
KAPF 251258Z 2513/2612 07006KT 1/4SM FG BKN002
     FM251330 VRB03KT P6SM FEW010
     FM251600 26010KT P6SM FEW025 SCT035
     FM260000 00000KT P6SM SKC=



000
FTUS42 KMFL 251258 AAB
TAFAPF
TAF AMD
KAPF 251258Z 2513/2612 07006KT 1/4SM FG BKN002
     FM251330 VRB03KT P6SM FEW010
     FM251600 26010KT P6SM FEW025 SCT035
     FM260000 00000KT P6SM SKC=



000
FTUS42 KMFL 251258 AAB
TAFAPF
TAF AMD
KAPF 251258Z 2513/2612 07006KT 1/4SM FG BKN002
     FM251330 VRB03KT P6SM FEW010
     FM251600 26010KT P6SM FEW025 SCT035
     FM260000 00000KT P6SM SKC=



000
FTUS42 KMFL 251258 AAB
TAFAPF
TAF AMD
KAPF 251258Z 2513/2612 07006KT 1/4SM FG BKN002
     FM251330 VRB03KT P6SM FEW010
     FM251600 26010KT P6SM FEW025 SCT035
     FM260000 00000KT P6SM SKC=



000
FTUS42 KMFL 251248 AAA
TAFPBI
TAF AMD
KPBI 251248Z 2513/2612 32004KT P6SM BKN021 BKN030
     FM251400 12008KT P6SM FEW025 SCT035
     FM260000 15005KT P6SM FEW025=



000
FTUS42 KMFL 251248 AAA
TAFPBI
TAF AMD
KPBI 251248Z 2513/2612 32004KT P6SM BKN021 BKN030
     FM251400 12008KT P6SM FEW025 SCT035
     FM260000 15005KT P6SM FEW025=



000
FTUS42 KMFL 251248 AAA
TAFPBI
TAF AMD
KPBI 251248Z 2513/2612 32004KT P6SM BKN021 BKN030
     FM251400 12008KT P6SM FEW025 SCT035
     FM260000 15005KT P6SM FEW025=



000
FTUS42 KMFL 251248 AAA
TAFMIA
TAF AMD
KMIA 251248Z 2513/2612 31004KT 3SM BR OVC006
     FM251330 31004KT P6SM FEW010 SCT250
     FM251600 14008KT P6SM FEW025 SCT035=



000
FTUS42 KMFL 251248 AAA
TAFMIA
TAF AMD
KMIA 251248Z 2513/2612 31004KT 3SM BR OVC006
     FM251330 31004KT P6SM FEW010 SCT250
     FM251600 14008KT P6SM FEW025 SCT035=



000
FTUS42 KMFL 251248 AAA
TAFMIA
TAF AMD
KMIA 251248Z 2513/2612 31004KT 3SM BR OVC006
     FM251330 31004KT P6SM FEW010 SCT250
     FM251600 14008KT P6SM FEW025 SCT035=



000
FTUS42 KMFL 251248 AAA
TAFMIA
TAF AMD
KMIA 251248Z 2513/2612 31004KT 3SM BR OVC006
     FM251330 31004KT P6SM FEW010 SCT250
     FM251600 14008KT P6SM FEW025 SCT035=



000
FTUS42 KMFL 251248 AAA
TAFPBI
TAF AMD
KPBI 251248Z 2513/2612 32004KT P6SM BKN021 BKN030
     FM251400 12008KT P6SM FEW025 SCT035
     FM260000 15005KT P6SM FEW025=



000
FTUS42 KMFL 251247 AAA
TAFAPF
TAF AMD
KAPF 251247Z 2513/2612 07005KT 2SM BR BKN004
     FM251400 VRB03KT P6SM FEW010
     FM251600 26010KT P6SM FEW025 SCT035
     FM260000 00000KT P6SM SKC=



000
FTUS42 KMFL 251247 AAA
TAFAPF
TAF AMD
KAPF 251247Z 2513/2612 07005KT 2SM BR BKN004
     FM251400 VRB03KT P6SM FEW010
     FM251600 26010KT P6SM FEW025 SCT035
     FM260000 00000KT P6SM SKC=



000
FTUS42 KMFL 251247 AAA
TAFAPF
TAF AMD
KAPF 251247Z 2513/2612 07005KT 2SM BR BKN004
     FM251400 VRB03KT P6SM FEW010
     FM251600 26010KT P6SM FEW025 SCT035
     FM260000 00000KT P6SM SKC=



000
FTUS42 KMFL 251247 AAA
TAFAPF
TAF AMD
KAPF 251247Z 2513/2612 07005KT 2SM BR BKN004
     FM251400 VRB03KT P6SM FEW010
     FM251600 26010KT P6SM FEW025 SCT035
     FM260000 00000KT P6SM SKC=



000
FTUS42 KMFL 251246 AAA
TAFFLL
TAF AMD
KFLL 251246Z 2513/2612 33005KT 1 1/2SM BR OVC003
     FM251315 30004KT P6SM FEW010 SCT250
     FM251500 11008KT P6SM FEW025 SCT035=



000
FTUS42 KMFL 251246 AAA
TAFFLL
TAF AMD
KFLL 251246Z 2513/2612 33005KT 1 1/2SM BR OVC003
     FM251315 30004KT P6SM FEW010 SCT250
     FM251500 11008KT P6SM FEW025 SCT035=



000
FTUS42 KMFL 251246 AAA
TAFFLL
TAF AMD
KFLL 251246Z 2513/2612 33005KT 1 1/2SM BR OVC003
     FM251315 30004KT P6SM FEW010 SCT250
     FM251500 11008KT P6SM FEW025 SCT035=



000
FTUS42 KMFL 251126
TAFFLL
TAF
KFLL 251126Z 2512/2612 29003KT 1/2SM FG OVC002
     FM251230 30004KT P6SM FEW010 SCT250
     FM251500 11008KT P6SM FEW025 SCT035=



000
FTUS42 KMFL 251126
TAFMIA
TAF
KMIA 251126Z 2512/2612 29003KT 2SM BR OVC004
     FM251230 29004KT P6SM FEW010 SCT250
     FM251600 14008KT P6SM FEW025 SCT035=



000
FTUS42 KMFL 251126
TAFAPF
TAF
KAPF 251126Z 2512/2612 00000KT 6SM BR SKC
     FM251300 VRB03KT P6SM FEW010
     FM251600 26010KT P6SM FEW025 SCT035
     FM260000 00000KT P6SM SKC=



000
FTUS42 KMFL 251126
TAFPBI
TAF
KPBI 251126Z 2512/2612 29004KT P6SM BKN020
     FM251230 29005KT P6SM SCT020
     FM251400 12008KT P6SM FEW025 SCT035
     FM260000 15005KT P6SM FEW025=



000
FTUS42 KMFL 251126
TAFAPF
TAF
KAPF 251126Z 2512/2612 00000KT 6SM BR SKC
     FM251300 VRB03KT P6SM FEW010
     FM251600 26010KT P6SM FEW025 SCT035
     FM260000 00000KT P6SM SKC=



000
FTUS42 KMFL 251126
TAFFLL
TAF
KFLL 251126Z 2512/2612 29003KT 1/2SM FG OVC002
     FM251230 30004KT P6SM FEW010 SCT250
     FM251500 11008KT P6SM FEW025 SCT035=



000
FTUS42 KMFL 251126
TAFPBI
TAF
KPBI 251126Z 2512/2612 29004KT P6SM BKN020
     FM251230 29005KT P6SM SCT020
     FM251400 12008KT P6SM FEW025 SCT035
     FM260000 15005KT P6SM FEW025=



000
FTUS42 KMFL 251126
TAFMIA
TAF
KMIA 251126Z 2512/2612 29003KT 2SM BR OVC004
     FM251230 29004KT P6SM FEW010 SCT250
     FM251600 14008KT P6SM FEW025 SCT035=



000
FTUS42 KMFL 251119 AAB
TAFPBI
TAF AMD
KPBI 251119Z 2511/2606 29004KT P6SM BKN020
     FM251200 29005KT P6SM SCT020
     FM251400 12008KT P6SM FEW025 SCT035
     FM260000 15005KT P6SM FEW025=



000
FTUS42 KMFL 251119 AAB
TAFPBI
TAF AMD
KPBI 251119Z 2511/2606 29004KT P6SM BKN020
     FM251200 29005KT P6SM SCT020
     FM251400 12008KT P6SM FEW025 SCT035
     FM260000 15005KT P6SM FEW025=



000
FTUS42 KMFL 251115 AAC
TAFFLL
TAF AMD
KFLL 251115Z 2511/2606 29003KT 1 1/2SM BR BKN002
     FM251230 30004KT P6SM FEW010 SCT250
     FM251500 11008KT P6SM FEW025 SCT035=



000
FTUS42 KMFL 251115 AAC
TAFFLL
TAF AMD
KFLL 251115Z 2511/2606 29003KT 1 1/2SM BR BKN002
     FM251230 30004KT P6SM FEW010 SCT250
     FM251500 11008KT P6SM FEW025 SCT035=



000
FTUS42 KMFL 251115 AAC
TAFFLL
TAF AMD
KFLL 251115Z 2511/2606 29003KT 1 1/2SM BR BKN002
     FM251230 30004KT P6SM FEW010 SCT250
     FM251500 11008KT P6SM FEW025 SCT035=



000
FTUS42 KMFL 251115 AAC
TAFFLL
TAF AMD
KFLL 251115Z 2511/2606 29003KT 1 1/2SM BR BKN002
     FM251230 30004KT P6SM FEW010 SCT250
     FM251500 11008KT P6SM FEW025 SCT035=



000
FTUS42 KMFL 251113 AAD
TAFMIA
TAF AMD
KMIA 251113Z 2511/2606 29003KT 2SM BR OVC004
     FM251200 29004KT P6SM FEW010 SCT250
     FM251600 14008KT P6SM FEW025 SCT035=



000
FTUS42 KMFL 251113 AAD
TAFMIA
TAF AMD
KMIA 251113Z 2511/2606 29003KT 2SM BR OVC004
     FM251200 29004KT P6SM FEW010 SCT250
     FM251600 14008KT P6SM FEW025 SCT035=



000
FTUS42 KMFL 251113 AAD
TAFMIA
TAF AMD
KMIA 251113Z 2511/2606 29003KT 2SM BR OVC004
     FM251200 29004KT P6SM FEW010 SCT250
     FM251600 14008KT P6SM FEW025 SCT035=



000
FTUS42 KMFL 251113 AAD
TAFMIA
TAF AMD
KMIA 251113Z 2511/2606 29003KT 2SM BR OVC004
     FM251200 29004KT P6SM FEW010 SCT250
     FM251600 14008KT P6SM FEW025 SCT035=



000
FTUS42 KMFL 251009 AAC
TAFMIA
TAF AMD
KMIA 251009Z 2510/2606 29006KT 1/4SM FG VV002
     FM251100 29006KT 1SM BR BKN002
      TEMPO 2511/2513 1/2SM FG VV002
     FM251400 14008KT P6SM FEW025 SCT035=



000
FTUS42 KMFL 251009 AAC
TAFMIA
TAF AMD
KMIA 251009Z 2510/2606 29006KT 1/4SM FG VV002
     FM251100 29006KT 1SM BR BKN002
      TEMPO 2511/2513 1/2SM FG VV002
     FM251400 14008KT P6SM FEW025 SCT035=



000
FTUS42 KMFL 251009 AAC
TAFMIA
TAF AMD
KMIA 251009Z 2510/2606 29006KT 1/4SM FG VV002
     FM251100 29006KT 1SM BR BKN002
      TEMPO 2511/2513 1/2SM FG VV002
     FM251400 14008KT P6SM FEW025 SCT035=



000
FTUS42 KMFL 251009 AAC
TAFMIA
TAF AMD
KMIA 251009Z 2510/2606 29006KT 1/4SM FG VV002
     FM251100 29006KT 1SM BR BKN002
      TEMPO 2511/2513 1/2SM FG VV002
     FM251400 14008KT P6SM FEW025 SCT035=



000
FTUS42 KMFL 250953 AAB
TAFMIA
TAF AMD
KMIA 250953Z 2510/2606 26005KT P6SM SCT050
      TEMPO 2510/2513 1/2SM FG OVC002
     FM251400 14008KT P6SM FEW025 SCT035=



000
FTUS42 KMFL 250953 AAB
TAFMIA
TAF AMD
KMIA 250953Z 2510/2606 26005KT P6SM SCT050
      TEMPO 2510/2513 1/2SM FG OVC002
     FM251400 14008KT P6SM FEW025 SCT035=



000
FTUS42 KMFL 250945 AAB
TAFFLL
TAF AMD
KFLL 250945Z 2510/2606 29004KT P6SM SCT050
      TEMPO 2510/2513 4SM BR BKN006
     FM251300 14008KT P6SM FEW025 SCT035=



000
FTUS42 KMFL 250945 AAB
TAFFLL
TAF AMD
KFLL 250945Z 2510/2606 29004KT P6SM SCT050
      TEMPO 2510/2513 4SM BR BKN006
     FM251300 14008KT P6SM FEW025 SCT035=



000
FTUS42 KMFL 250945 AAB
TAFFLL
TAF AMD
KFLL 250945Z 2510/2606 29004KT P6SM SCT050
      TEMPO 2510/2513 4SM BR BKN006
     FM251300 14008KT P6SM FEW025 SCT035=



000
FTUS42 KMFL 250903 AAA
TAFFLL
TAF AMD
KFLL 250903Z 2509/2606 29004KT P6SM SCT100
     FM251300 14008KT P6SM FEW025 SCT035=



000
FTUS42 KMFL 250903 AAA
TAFMIA
TAF AMD
KMIA 250903Z 2509/2606 26004KT P6SM FEW090
      TEMPO 2509/2513 2SM BR BKN002
     FM251400 14008KT P6SM FEW025 SCT035=



000
FTUS42 KMFL 250903 AAA
TAFAPF
TAF AMD
KAPF 250903Z 2509/2606 00000KT P6SM SCT025
      TEMPO 2509/2513 4SM BR
     FM251400 03004KT P6SM FEW010
     FM251700 23010KT P6SM FEW025 SCT035=



000
FTUS42 KMFL 250903 AAA
TAFFLL
TAF AMD
KFLL 250903Z 2509/2606 29004KT P6SM SCT100
     FM251300 14008KT P6SM FEW025 SCT035=



000
FTUS42 KMFL 250903 AAA
TAFPBI
TAF AMD
KPBI 250903Z 2509/2606 34003KT P6SM SCT120
     FM251400 15008KT P6SM FEW025 SCT035=



000
FTUS42 KMFL 250903 AAA
TAFMIA
TAF AMD
KMIA 250903Z 2509/2606 26004KT P6SM FEW090
      TEMPO 2509/2513 2SM BR BKN002
     FM251400 14008KT P6SM FEW025 SCT035=



000
FTUS42 KMFL 250903 AAA
TAFPBI
TAF AMD
KPBI 250903Z 2509/2606 34003KT P6SM SCT120
     FM251400 15008KT P6SM FEW025 SCT035=



000
FTUS42 KMFL 250903 AAA
TAFAPF
TAF AMD
KAPF 250903Z 2509/2606 00000KT P6SM SCT025
      TEMPO 2509/2513 4SM BR
     FM251400 03004KT P6SM FEW010
     FM251700 23010KT P6SM FEW025 SCT035=



000
FTUS42 KMFL 250529
TAFFLL
TAF
KFLL 250529Z 2506/2606 29003KT P6SM SCT120
     FM251300 14008KT P6SM FEW025 SCT035=



000
FTUS42 KMFL 250529
TAFMIA
TAF
KMIA 250529Z 2506/2606 23004KT P6SM FEW150
     FM251400 14008KT P6SM FEW025 SCT035=



000
FTUS42 KMFL 250529
TAFAPF
TAF
KAPF 250529Z 2506/2606 00000KT P6SM SKC
     FM251000 00000KT 4SM BR SCT015 BKN025
     FM251400 03004KT P6SM FEW010
     FM251700 23010KT P6SM FEW025 SCT035=



000
FTUS42 KMFL 250529
TAFPBI
TAF
KPBI 250529Z 2506/2606 00000KT P6SM SCT040 SCT120
     FM251400 15008KT P6SM FEW025 SCT035=



000
FTUS42 KMFL 250529
TAFMIA
TAF
KMIA 250529Z 2506/2606 23004KT P6SM FEW150
     FM251400 14008KT P6SM FEW025 SCT035=



000
FTUS42 KMFL 250529
TAFPBI
TAF
KPBI 250529Z 2506/2606 00000KT P6SM SCT040 SCT120
     FM251400 15008KT P6SM FEW025 SCT035=



000
FTUS42 KMFL 250529
TAFAPF
TAF
KAPF 250529Z 2506/2606 00000KT P6SM SKC
     FM251000 00000KT 4SM BR SCT015 BKN025
     FM251400 03004KT P6SM FEW010
     FM251700 23010KT P6SM FEW025 SCT035=



000
FTUS42 KMFL 250529
TAFMIA
TAF
KMIA 250529Z 2506/2606 23004KT P6SM FEW150
     FM251400 14008KT P6SM FEW025 SCT035=



000
FTUS42 KMFL 250529
TAFPBI
TAF
KPBI 250529Z 2506/2606 00000KT P6SM SCT040 SCT120
     FM251400 15008KT P6SM FEW025 SCT035=



000
FTUS42 KMFL 250529
TAFFLL
TAF
KFLL 250529Z 2506/2606 29003KT P6SM SCT120
     FM251300 14008KT P6SM FEW025 SCT035=



000
FTUS42 KMFL 250529
TAFFLL
TAF
KFLL 250529Z 2506/2606 29003KT P6SM SCT120
     FM251300 14008KT P6SM FEW025 SCT035=



000
FTUS42 KMFL 250529
TAFAPF
TAF
KAPF 250529Z 2506/2606 00000KT P6SM SKC
     FM251000 00000KT 4SM BR SCT015 BKN025
     FM251400 03004KT P6SM FEW010
     FM251700 23010KT P6SM FEW025 SCT035=



000
FTUS42 KMFL 250315 AAA
TAFFLL
TAF AMD
KFLL 250315Z 2503/2524 21004KT P6SM VCSH SCT050
     FM250600 21003KT P6SM SCT150
     FM251300 14008KT P6SM FEW025 SCT035=



000
FTUS42 KMFL 250315 AAA
TAFMIA
TAF AMD
KMIA 250315Z 2503/2524 23004KT P6SM SCT150
     FM251400 14008KT P6SM FEW025 SCT035=



000
FTUS42 KMFL 250315 AAA
TAFAPF
TAF AMD
KAPF 250315Z 2503/2524 35003KT P6SM FEW020
     FM251000 VRB02KT 3SM BR SCT005 BKN015
     FM251400 05005KT P6SM FEW010
     FM251700 28010KT P6SM FEW025 SCT035=



000
FTUS42 KMFL 250315 AAA
TAFFLL
TAF AMD
KFLL 250315Z 2503/2524 21004KT P6SM VCSH SCT050
     FM250600 21003KT P6SM SCT150
     FM251300 14008KT P6SM FEW025 SCT035=



000
FTUS42 KMFL 250315 AAA
TAFPBI
TAF AMD
KPBI 250315Z 2503/2524 04003KT P6SM FEW020 SCT150
     FM251400 15008KT P6SM FEW025 SCT035=



000
FTUS42 KMFL 250315 AAA
TAFPBI
TAF AMD
KPBI 250315Z 2503/2524 04003KT P6SM FEW020 SCT150
     FM251400 15008KT P6SM FEW025 SCT035=



000
FTUS42 KMFL 250315 AAA
TAFAPF
TAF AMD
KAPF 250315Z 2503/2524 35003KT P6SM FEW020
     FM251000 VRB02KT 3SM BR SCT005 BKN015
     FM251400 05005KT P6SM FEW010
     FM251700 28010KT P6SM FEW025 SCT035=



000
FTUS42 KMFL 250315 AAA
TAFMIA
TAF AMD
KMIA 250315Z 2503/2524 23004KT P6SM SCT150
     FM251400 14008KT P6SM FEW025 SCT035=



000
FTUS42 KMFL 242331
TAFMIA
TAF
KMIA 242331Z 2500/2524 14005KT P6SM VCSH SCT020 BKN035
     FM250200 VRB04KT P6SM FEW020
     FM251400 14008KT P6SM FEW025 SCT035=



000
FTUS42 KMFL 242331
TAFAPF
TAF
KAPF 242331Z 2500/2524 28005KT P6SM FEW025
     FM250200 VRB02KT P6SM FEW020
     FM251000 VRB02KT 3SM BR SCT005 BKN015
     FM251400 05005KT P6SM FEW010
     FM251700 28010KT P6SM FEW025 SCT035=



000
FTUS42 KMFL 242331
TAFAPF
TAF
KAPF 242331Z 2500/2524 28005KT P6SM FEW025
     FM250200 VRB02KT P6SM FEW020
     FM251000 VRB02KT 3SM BR SCT005 BKN015
     FM251400 05005KT P6SM FEW010
     FM251700 28010KT P6SM FEW025 SCT035=



000
FTUS42 KMFL 242331
TAFFLL
TAF
KFLL 242331Z 2500/2524 14007KT P6SM VCSH SCT015 BKN035
     FM250200 VRB03KT P6SM FEW020
     FM251300 14008KT P6SM FEW025 SCT035=



000
FTUS42 KMFL 242331
TAFFLL
TAF
KFLL 242331Z 2500/2524 14007KT P6SM VCSH SCT015 BKN035
     FM250200 VRB03KT P6SM FEW020
     FM251300 14008KT P6SM FEW025 SCT035=



000
FTUS42 KMFL 242331
TAFMIA
TAF
KMIA 242331Z 2500/2524 14005KT P6SM VCSH SCT020 BKN035
     FM250200 VRB04KT P6SM FEW020
     FM251400 14008KT P6SM FEW025 SCT035=



000
FTUS42 KMFL 242331
TAFAPF
TAF
KAPF 242331Z 2500/2524 28005KT P6SM FEW025
     FM250200 VRB02KT P6SM FEW020
     FM251000 VRB02KT 3SM BR SCT005 BKN015
     FM251400 05005KT P6SM FEW010
     FM251700 28010KT P6SM FEW025 SCT035=



000
FTUS42 KMFL 242331
TAFMIA
TAF
KMIA 242331Z 2500/2524 14005KT P6SM VCSH SCT020 BKN035
     FM250200 VRB04KT P6SM FEW020
     FM251400 14008KT P6SM FEW025 SCT035=



000
FTUS42 KMFL 242331
TAFPBI
TAF
KPBI 242331Z 2500/2524 04005KT P6SM VCSH SCT015 BKN040
     FM250200 VRB02KT P6SM FEW020
     FM251400 15008KT P6SM FEW025 SCT035=



000
FTUS42 KMFL 242331
TAFPBI
TAF
KPBI 242331Z 2500/2524 04005KT P6SM VCSH SCT015 BKN040
     FM250200 VRB02KT P6SM FEW020
     FM251400 15008KT P6SM FEW025 SCT035=



000
FTUS42 KMFL 242331
TAFAPF
TAF
KAPF 242331Z 2500/2524 28005KT P6SM FEW025
     FM250200 VRB02KT P6SM FEW020
     FM251000 VRB02KT 3SM BR SCT005 BKN015
     FM251400 05005KT P6SM FEW010
     FM251700 28010KT P6SM FEW025 SCT035=



000
FTUS42 KMFL 242331
TAFPBI
TAF
KPBI 242331Z 2500/2524 04005KT P6SM VCSH SCT015 BKN040
     FM250200 VRB02KT P6SM FEW020
     FM251400 15008KT P6SM FEW025 SCT035=



000
FTUS42 KMFL 242331
TAFFLL
TAF
KFLL 242331Z 2500/2524 14007KT P6SM VCSH SCT015 BKN035
     FM250200 VRB03KT P6SM FEW020
     FM251300 14008KT P6SM FEW025 SCT035=



000
FTUS42 KMFL 242331
TAFMIA
TAF
KMIA 242331Z 2500/2524 14005KT P6SM VCSH SCT020 BKN035
     FM250200 VRB04KT P6SM FEW020
     FM251400 14008KT P6SM FEW025 SCT035=



000
FTUS42 KMFL 242331
TAFFLL
TAF
KFLL 242331Z 2500/2524 14007KT P6SM VCSH SCT015 BKN035
     FM250200 VRB03KT P6SM FEW020
     FM251300 14008KT P6SM FEW025 SCT035=



000
FTUS42 KMFL 242331
TAFPBI
TAF
KPBI 242331Z 2500/2524 04005KT P6SM VCSH SCT015 BKN040
     FM250200 VRB02KT P6SM FEW020
     FM251400 15008KT P6SM FEW025 SCT035=



    US Dept of Commerce
    National Oceanic and Atmospheric Administration
    National Weather Service
    1325 East West Highway
    Silver Spring, MD 20910
    Page Author: NWS Internet Services Team
Disclaimer
Information Quality
Credits
Glossary
Privacy Policy
Freedom of Information Act (FOIA)
About Us
Career Opportunities